ANA117 KSEA-RJTT
Flight info
| Callsign | ANA117 |
|---|---|
| Flight time | 9h 39m |
| Altitude | 38000 |
| Route | BANGR9 ARRIE J523 TOU DCT FINGS DCT KATCH DCT HMPTN DCT GRIZZ DCT CJAYY DCT 58N160W DCT SPY DCT CREMR DCT PINTT DCT OBOYD DCT NATES DCT NIKLL DCT NYMPH DCT NUZAN DCT NRKEY DCT NIPPI R220 NANAC Z22 LOSVA Y810 AKRIT Y807 POLIX POLIX |
| Aircraft | B787/H-V/N |
Departure
| Time | 2026-05-06 16:28 |
|---|---|
| Airport | Seattle–Tacoma International Airport (KSEA) |
Arrival
| Time | 2026-05-07 02:07 |
|---|---|
| Airport | Tokyo Haneda International Airport (RJTT) |
| Time | Latitude | Longitude | Altitude | Speed | Heading |
|---|---|---|---|---|---|
| 2026-05-06 15:52 | 47.43973 | -122.30184 | 389 ft | 0 kts | 176° |
| 2026-05-06 16:16 | 47.43976 | -122.30184 | 389 ft | 2 kts | 177° |
| 2026-05-06 16:16 | 47.43994 | -122.30186 | 389 ft | 3 kts | 179° |
| 2026-05-06 16:16 | 47.44015 | -122.30186 | 389 ft | 3 kts | 184° |
| 2026-05-06 16:17 | 47.44034 | -122.30182 | 389 ft | 3 kts | 197° |
| 2026-05-06 16:17 | 47.44051 | -122.30171 | 389 ft | 3 kts | 232° |
| 2026-05-06 16:17 | 47.44056 | -122.30160 | 389 ft | 0 kts | 254° |
| 2026-05-06 16:20 | 47.44055 | -122.30164 | 389 ft | 2 kts | 254° |
| 2026-05-06 16:20 | 47.44043 | -122.30210 | 389 ft | 8 kts | 244° |
| 2026-05-06 16:20 | 47.44013 | -122.30290 | 389 ft | 9 kts | 241° |
| 2026-05-06 16:20 | 47.43989 | -122.30376 | 389 ft | 8 kts | 267° |
| 2026-05-06 16:21 | 47.43988 | -122.30462 | 389 ft | 9 kts | 270° |
| 2026-05-06 16:21 | 47.43989 | -122.30562 | 389 ft | 11 kts | 272° |
| 2026-05-06 16:21 | 47.44025 | -122.30626 | 389 ft | 9 kts | 328° |
| 2026-05-06 16:21 | 47.44101 | -122.30634 | 389 ft | 15 kts | 359° |
| 2026-05-06 16:22 | 47.44218 | -122.30634 | 389 ft | 17 kts | 0° |
| 2026-05-06 16:22 | 47.44341 | -122.30633 | 389 ft | 18 kts | 0° |
| 2026-05-06 16:22 | 47.44468 | -122.30632 | 389 ft | 18 kts | 0° |
| 2026-05-06 16:22 | 47.44599 | -122.30633 | 389 ft | 19 kts | 360° |
| 2026-05-06 16:23 | 47.44687 | -122.30632 | 389 ft | 19 kts | 1° |
| 2026-05-06 16:23 | 47.44871 | -122.30629 | 389 ft | 20 kts | 0° |
| 2026-05-06 16:23 | 47.45011 | -122.30628 | 389 ft | 20 kts | 360° |
| 2026-05-06 16:23 | 47.45155 | -122.30629 | 389 ft | 21 kts | 360° |
| 2026-05-06 16:24 | 47.45301 | -122.30625 | 389 ft | 21 kts | 1° |
| 2026-05-06 16:24 | 47.45449 | -122.30622 | 389 ft | 21 kts | 359° |
| 2026-05-06 16:24 | 47.45597 | -122.30624 | 389 ft | 22 kts | 359° |
| 2026-05-06 16:24 | 47.45749 | -122.30619 | 389 ft | 22 kts | 1° |
| 2026-05-06 16:25 | 47.45903 | -122.30617 | 389 ft | 22 kts | 0° |
| 2026-05-06 16:25 | 47.46056 | -122.30617 | 389 ft | 23 kts | 360° |
| 2026-05-06 16:25 | 47.46213 | -122.30618 | 389 ft | 23 kts | 0° |
| 2026-05-06 16:25 | 47.46336 | -122.30621 | 389 ft | 13 kts | 352° |
| 2026-05-06 16:26 | 47.46376 | -122.30666 | 389 ft | 2 kts | 282° |
| 2026-05-06 16:26 | 47.46376 | -122.30704 | 389 ft | 6 kts | 268° |
| 2026-05-06 16:26 | 47.46347 | -122.30770 | 389 ft | 10 kts | 214° |
| 2026-05-06 16:26 | 47.46329 | -122.30777 | 389 ft | 1 kts | 184° |
| 2026-05-06 16:27 | 47.46271 | -122.30778 | 389 ft | 24 kts | 181° |
| 2026-05-06 16:27 | 47.45854 | -122.30786 | 389 ft | 97 kts | 181° |
| 2026-05-06 16:27 | 47.44949 | -122.30792 | 395 ft | 161 kts | 180° |
| 2026-05-06 16:27 | 47.43767 | -122.30787 | 962 ft | 170 kts | 179° |
| 2026-05-06 16:28 | 47.42598 | -122.30790 | 1843 ft | 171 kts | 181° |
| 2026-05-06 16:28 | 47.41361 | -122.30772 | 2470 ft | 189 kts | 181° |
| 2026-05-06 16:28 | 47.39949 | -122.30755 | 2998 ft | 215 kts | 180° |
| 2026-05-06 16:28 | 47.38393 | -122.30810 | 3572 ft | 232 kts | 184° |
| 2026-05-06 16:29 | 47.36717 | -122.30961 | 4140 ft | 250 kts | 184° |
| 2026-05-06 16:29 | 47.34945 | -122.31062 | 4737 ft | 257 kts | 184° |
| 2026-05-06 16:29 | 47.33764 | -122.31386 | 5083 ft | 268 kts | 204° |
| 2026-05-06 16:29 | 47.32300 | -122.33008 | 5669 ft | 261 kts | 235° |
| 2026-05-06 16:30 | 47.31576 | -122.35426 | 6386 ft | 262 kts | 261° |
| 2026-05-06 16:30 | 47.31375 | -122.37186 | 6856 ft | 264 kts | 262° |
| 2026-05-06 16:30 | 47.30900 | -122.41642 | 8082 ft | 267 kts | 263° |
| 2026-05-06 16:30 | 47.30864 | -122.43513 | 8590 ft | 274 kts | 281° |
| 2026-05-06 16:31 | 47.31513 | -122.46140 | 9397 ft | 274 kts | 297° |
| 2026-05-06 16:31 | 47.32419 | -122.48682 | 10057 ft | 286 kts | 299° |
| 2026-05-06 16:31 | 47.33424 | -122.51251 | 10673 ft | 300 kts | 304° |
| 2026-05-06 16:31 | 47.34971 | -122.53471 | 11341 ft | 316 kts | 320° |
| 2026-05-06 16:32 | 47.36672 | -122.55647 | 12008 ft | 331 kts | 318° |
| 2026-05-06 16:32 | 47.38428 | -122.57957 | 12699 ft | 346 kts | 318° |
| 2026-05-06 16:32 | 47.40250 | -122.60303 | 13455 ft | 356 kts | 319° |
| 2026-05-06 16:32 | 47.42149 | -122.62722 | 14228 ft | 365 kts | 319° |
| 2026-05-06 16:33 | 47.43976 | -122.65066 | 14914 ft | 369 kts | 319° |
| 2026-05-06 16:33 | 47.45868 | -122.67509 | 15629 ft | 374 kts | 319° |
| 2026-05-06 16:33 | 47.47809 | -122.70016 | 16370 ft | 378 kts | 319° |
| 2026-05-06 16:34 | 47.51812 | -122.75179 | 17898 ft | 387 kts | 319° |
| 2026-05-06 16:34 | 47.53850 | -122.77814 | 18540 ft | 391 kts | 319° |
| 2026-05-06 16:34 | 47.55902 | -122.80471 | 19120 ft | 394 kts | 319° |
| 2026-05-06 16:34 | 47.57971 | -122.83151 | 19710 ft | 395 kts | 319° |
| 2026-05-06 16:35 | 47.60042 | -122.85838 | 20308 ft | 397 kts | 319° |
| 2026-05-06 16:35 | 47.62129 | -122.88549 | 20918 ft | 399 kts | 319° |
| 2026-05-06 16:35 | 47.64146 | -122.91385 | 21541 ft | 402 kts | 311° |
| 2026-05-06 16:35 | 47.65782 | -122.94771 | 22192 ft | 405 kts | 303° |
| 2026-05-06 16:36 | 47.67294 | -122.98315 | 22844 ft | 408 kts | 303° |
| 2026-05-06 16:36 | 47.68806 | -123.01887 | 23508 ft | 410 kts | 302° |
| 2026-05-06 16:36 | 47.70320 | -123.05476 | 24105 ft | 411 kts | 302° |
| 2026-05-06 16:36 | 47.71843 | -123.09082 | 24677 ft | 412 kts | 303° |
| 2026-05-06 16:37 | 47.73369 | -123.12690 | 25252 ft | 412 kts | 302° |
| 2026-05-06 16:37 | 47.74888 | -123.16294 | 25838 ft | 412 kts | 303° |
| 2026-05-06 16:37 | 47.76409 | -123.19911 | 26444 ft | 410 kts | 303° |
| 2026-05-06 16:37 | 47.77896 | -123.23448 | 27042 ft | 409 kts | 303° |
| 2026-05-06 16:38 | 47.79405 | -123.27042 | 27671 ft | 409 kts | 303° |
| 2026-05-06 16:38 | 47.80914 | -123.30638 | 28309 ft | 408 kts | 303° |
| 2026-05-06 16:38 | 47.82413 | -123.34218 | 28970 ft | 407 kts | 303° |
| 2026-05-06 16:38 | 47.83907 | -123.37795 | 29643 ft | 407 kts | 303° |
| 2026-05-06 16:39 | 47.85402 | -123.41372 | 30154 ft | 410 kts | 303° |
| 2026-05-06 16:39 | 47.86938 | -123.45053 | 30150 ft | 424 kts | 303° |
| 2026-05-06 16:39 | 47.88477 | -123.48880 | 30161 ft | 437 kts | 299° |
| 2026-05-06 16:40 | 47.91476 | -123.56952 | 30173 ft | 449 kts | 300° |
| 2026-05-06 16:40 | 47.92983 | -123.60992 | 30603 ft | 443 kts | 300° |
| 2026-05-06 16:40 | 47.94453 | -123.64966 | 31085 ft | 442 kts | 300° |
| 2026-05-06 16:40 | 47.95939 | -123.68992 | 31574 ft | 442 kts | 300° |
| 2026-05-06 16:41 | 47.97425 | -123.73009 | 32084 ft | 442 kts | 300° |
| 2026-05-06 16:41 | 47.98906 | -123.77017 | 32588 ft | 441 kts | 300° |
| 2026-05-06 16:41 | 48.00384 | -123.81029 | 33097 ft | 439 kts | 300° |
| 2026-05-06 16:41 | 48.01853 | -123.85026 | 33581 ft | 439 kts | 300° |
| 2026-05-06 16:42 | 48.03322 | -123.89024 | 34045 ft | 438 kts | 300° |
| 2026-05-06 16:42 | 48.04788 | -123.93021 | 34487 ft | 438 kts | 300° |
| 2026-05-06 16:42 | 48.06247 | -123.97004 | 34900 ft | 437 kts | 300° |
| 2026-05-06 16:42 | 48.07704 | -124.00988 | 35317 ft | 436 kts | 300° |
| 2026-05-06 16:43 | 48.09155 | -124.04963 | 35759 ft | 435 kts | 300° |
| 2026-05-06 16:43 | 48.10599 | -124.08924 | 36185 ft | 433 kts | 300° |
| 2026-05-06 16:43 | 48.12042 | -124.12887 | 36628 ft | 432 kts | 300° |
| 2026-05-06 16:43 | 48.13457 | -124.16782 | 37071 ft | 430 kts | 300° |
| 2026-05-06 16:44 | 48.14882 | -124.20709 | 37526 ft | 428 kts | 300° |
| 2026-05-06 16:44 | 48.16299 | -124.24619 | 37988 ft | 426 kts | 300° |
| 2026-05-06 16:44 | 48.17714 | -124.28525 | 38152 ft | 431 kts | 300° |
| 2026-05-06 16:45 | 48.20614 | -124.36556 | 38170 ft | 444 kts | 300° |
| 2026-05-06 16:45 | 48.23566 | -124.44761 | 38172 ft | 447 kts | 300° |
| 2026-05-06 16:46 | 48.26513 | -124.52975 | 38170 ft | 446 kts | 300° |
| 2026-05-06 16:46 | 48.29512 | -124.61075 | 38177 ft | 445 kts | 307° |
| 2026-05-06 16:47 | 48.33664 | -124.67930 | 38175 ft | 444 kts | 316° |
| 2026-05-06 16:47 | 48.38146 | -124.74332 | 38178 ft | 444 kts | 317° |
| 2026-05-06 16:48 | 48.42523 | -124.80588 | 38174 ft | 444 kts | 316° |
| 2026-05-06 16:48 | 48.46932 | -124.86918 | 38176 ft | 445 kts | 316° |
| 2026-05-06 16:49 | 48.51405 | -124.93346 | 38174 ft | 444 kts | 316° |
| 2026-05-06 16:49 | 48.55870 | -124.99784 | 38173 ft | 444 kts | 316° |
| 2026-05-06 16:50 | 48.60315 | -125.06209 | 38166 ft | 444 kts | 316° |
| 2026-05-06 16:50 | 48.64782 | -125.12683 | 38165 ft | 444 kts | 316° |
| 2026-05-06 16:51 | 48.69236 | -125.19154 | 38163 ft | 444 kts | 316° |
| 2026-05-06 16:51 | 48.73700 | -125.25656 | 38162 ft | 445 kts | 316° |
| 2026-05-06 16:52 | 48.78165 | -125.32176 | 38163 ft | 445 kts | 316° |
| 2026-05-06 16:52 | 48.82597 | -125.38666 | 38159 ft | 446 kts | 316° |
| 2026-05-06 16:53 | 48.87067 | -125.45228 | 38160 ft | 446 kts | 316° |
| 2026-05-06 16:53 | 48.91531 | -125.51798 | 38161 ft | 447 kts | 316° |
| 2026-05-06 16:54 | 48.95994 | -125.58385 | 38155 ft | 447 kts | 316° |
| 2026-05-06 16:54 | 49.00454 | -125.64985 | 38162 ft | 447 kts | 315° |
| 2026-05-06 16:55 | 49.04881 | -125.71552 | 38161 ft | 447 kts | 315° |
| 2026-05-06 16:55 | 49.09337 | -125.78179 | 38160 ft | 448 kts | 315° |
| 2026-05-06 16:56 | 49.13794 | -125.84827 | 38170 ft | 448 kts | 315° |
| 2026-05-06 16:56 | 49.18263 | -125.91509 | 38169 ft | 449 kts | 315° |
| 2026-05-06 16:57 | 49.22722 | -125.98196 | 38168 ft | 449 kts | 315° |
| 2026-05-06 16:57 | 49.27181 | -126.04899 | 38164 ft | 450 kts | 315° |
| 2026-05-06 16:58 | 49.31644 | -126.11626 | 38156 ft | 450 kts | 315° |
| 2026-05-06 16:58 | 49.36110 | -126.18377 | 38154 ft | 451 kts | 315° |
| 2026-05-06 16:59 | 49.40582 | -126.25155 | 38158 ft | 451 kts | 315° |
| 2026-05-06 16:59 | 49.45053 | -126.31949 | 38152 ft | 453 kts | 315° |
| 2026-05-06 17:00 | 49.49527 | -126.38767 | 38148 ft | 452 kts | 314° |
| 2026-05-06 17:00 | 49.53971 | -126.45557 | 38145 ft | 453 kts | 314° |
| 2026-05-06 17:01 | 49.58437 | -126.52399 | 38142 ft | 453 kts | 314° |
| 2026-05-06 17:01 | 49.62922 | -126.59290 | 38142 ft | 455 kts | 314° |
| 2026-05-06 17:02 | 49.67395 | -126.66181 | 38147 ft | 455 kts | 314° |
| 2026-05-06 17:02 | 49.71884 | -126.73115 | 38145 ft | 456 kts | 314° |
| 2026-05-06 17:03 | 49.76340 | -126.80017 | 38134 ft | 455 kts | 314° |
| 2026-05-06 17:03 | 49.80828 | -126.86990 | 38151 ft | 459 kts | 314° |
| 2026-05-06 17:04 | 49.85323 | -126.93991 | 38145 ft | 457 kts | 314° |
| 2026-05-06 17:04 | 49.89798 | -127.00983 | 38149 ft | 456 kts | 314° |
| 2026-05-06 17:05 | 49.94269 | -127.07986 | 38153 ft | 456 kts | 313° |
| 2026-05-06 17:05 | 49.98704 | -127.14952 | 38159 ft | 456 kts | 313° |
| 2026-05-06 17:06 | 50.03198 | -127.22032 | 38162 ft | 457 kts | 313° |
| 2026-05-06 17:06 | 50.05393 | -127.25496 | 38508 ft | 453 kts | 313° |
| 2026-05-06 17:06 | 50.07582 | -127.28939 | 38417 ft | 434 kts | 311° |
| 2026-05-06 17:06 | 50.09664 | -127.32244 | 38268 ft | 421 kts | 310° |
| 2026-05-06 17:07 | 50.11684 | -127.35452 | 38166 ft | 409 kts | 310° |
| 2026-05-06 17:07 | 50.13623 | -127.38528 | 38163 ft | 397 kts | 310° |
| 2026-05-06 17:07 | 50.15549 | -127.41589 | 38136 ft | 396 kts | 310° |
| 2026-05-06 17:08 | 50.19455 | -127.47815 | 38182 ft | 406 kts | 310° |
| 2026-05-06 17:08 | 50.23422 | -127.54138 | 38188 ft | 409 kts | 310° |
| 2026-05-06 17:09 | 50.27147 | -127.60810 | 38201 ft | 406 kts | 306° |
| 2026-05-06 17:09 | 50.30727 | -127.67662 | 38190 ft | 407 kts | 306° |
| 2026-05-06 17:10 | 50.34281 | -127.74533 | 38196 ft | 405 kts | 306° |
| 2026-05-06 17:10 | 50.37805 | -127.81342 | 38196 ft | 405 kts | 306° |
| 2026-05-06 17:11 | 50.41346 | -127.88213 | 38210 ft | 406 kts | 306° |
| 2026-05-06 17:11 | 50.44890 | -127.95102 | 38210 ft | 405 kts | 306° |
| 2026-05-06 17:12 | 50.48419 | -128.01982 | 38223 ft | 404 kts | 306° |
| 2026-05-06 17:12 | 50.51946 | -128.08877 | 38219 ft | 404 kts | 306° |
| 2026-05-06 17:13 | 50.55465 | -128.15773 | 38224 ft | 404 kts | 305° |
| 2026-05-06 17:13 | 50.58956 | -128.22634 | 38227 ft | 404 kts | 305° |
| 2026-05-06 17:14 | 50.62465 | -128.29549 | 38241 ft | 404 kts | 305° |
| 2026-05-06 17:14 | 50.65967 | -128.36465 | 38233 ft | 403 kts | 305° |
| 2026-05-06 17:15 | 50.69460 | -128.43386 | 38240 ft | 403 kts | 305° |
| 2026-05-06 17:15 | 50.72355 | -128.49133 | 38249 ft | 403 kts | 305° |
| 2026-05-06 17:16 | 50.75849 | -128.56088 | 38249 ft | 403 kts | 305° |
| 2026-05-06 17:16 | 50.79339 | -128.63054 | 38258 ft | 403 kts | 305° |
| 2026-05-06 17:17 | 50.82798 | -128.69976 | 38239 ft | 403 kts | 304° |
| 2026-05-06 17:17 | 50.86270 | -128.76941 | 38248 ft | 403 kts | 304° |
| 2026-05-06 17:18 | 50.89736 | -128.83916 | 38255 ft | 403 kts | 304° |
| 2026-05-06 17:18 | 50.93203 | -128.90910 | 38262 ft | 403 kts | 304° |
| 2026-05-06 17:19 | 50.96663 | -128.97908 | 38265 ft | 403 kts | 304° |
| 2026-05-06 17:19 | 51.00114 | -129.04907 | 38262 ft | 403 kts | 304° |
| 2026-05-06 17:20 | 51.03566 | -129.11928 | 38268 ft | 403 kts | 304° |
| 2026-05-06 17:20 | 51.07013 | -129.18957 | 38268 ft | 403 kts | 304° |
| 2026-05-06 17:21 | 51.10462 | -129.26010 | 38267 ft | 403 kts | 304° |
| 2026-05-06 17:21 | 51.13880 | -129.33019 | 38271 ft | 403 kts | 304° |
| 2026-05-06 17:22 | 51.17318 | -129.40086 | 38269 ft | 403 kts | 304° |
| 2026-05-06 17:22 | 51.20750 | -129.47162 | 38271 ft | 403 kts | 304° |
| 2026-05-06 17:23 | 51.24173 | -129.54237 | 38272 ft | 402 kts | 303° |
| 2026-05-06 17:23 | 51.27567 | -129.61273 | 38271 ft | 402 kts | 303° |
| 2026-05-06 17:24 | 51.30972 | -129.68350 | 38279 ft | 402 kts | 303° |
| 2026-05-06 17:24 | 51.34376 | -129.75445 | 38279 ft | 402 kts | 303° |
| 2026-05-06 17:25 | 51.37781 | -129.82561 | 38284 ft | 402 kts | 303° |
| 2026-05-06 17:25 | 51.41182 | -129.89690 | 38282 ft | 403 kts | 303° |
| 2026-05-06 17:26 | 51.44578 | -129.96826 | 38284 ft | 403 kts | 303° |
| 2026-05-06 17:26 | 51.47971 | -130.03976 | 38287 ft | 403 kts | 303° |
| 2026-05-06 17:27 | 51.51348 | -130.11111 | 38259 ft | 404 kts | 303° |
| 2026-05-06 17:27 | 51.54741 | -130.18301 | 38263 ft | 404 kts | 303° |
| 2026-05-06 17:28 | 51.58125 | -130.25492 | 38265 ft | 403 kts | 303° |
| 2026-05-06 17:28 | 51.61508 | -130.32701 | 38268 ft | 403 kts | 302° |
| 2026-05-06 17:29 | 51.64888 | -130.39924 | 38267 ft | 403 kts | 302° |
| 2026-05-06 17:29 | 51.68257 | -130.47144 | 38267 ft | 403 kts | 302° |
| 2026-05-06 17:30 | 51.71633 | -130.54399 | 38268 ft | 403 kts | 302° |
| 2026-05-06 17:30 | 51.74978 | -130.61607 | 38264 ft | 404 kts | 302° |
| 2026-05-06 17:31 | 51.78339 | -130.68869 | 38268 ft | 404 kts | 302° |
| 2026-05-06 17:31 | 51.81705 | -130.76163 | 38260 ft | 405 kts | 302° |
| 2026-05-06 17:32 | 51.85071 | -130.83478 | 38264 ft | 405 kts | 302° |
| 2026-05-06 17:32 | 51.88442 | -130.90825 | 38266 ft | 406 kts | 302° |
| 2026-05-06 17:33 | 51.91802 | -130.98169 | 38272 ft | 406 kts | 302° |
| 2026-05-06 17:33 | 51.95143 | -131.05493 | 38278 ft | 406 kts | 302° |
| 2026-05-06 17:34 | 51.98499 | -131.12870 | 38286 ft | 406 kts | 301° |
| 2026-05-06 17:34 | 52.01873 | -131.20309 | 38292 ft | 407 kts | 301° |
| 2026-05-06 17:35 | 52.05205 | -131.27676 | 38295 ft | 407 kts | 301° |
| 2026-05-06 17:35 | 52.08554 | -131.35100 | 38300 ft | 406 kts | 301° |
| 2026-05-06 17:36 | 52.13568 | -131.46258 | 38305 ft | 407 kts | 301° |
| 2026-05-06 17:36 | 52.16884 | -131.53665 | 38301 ft | 407 kts | 301° |
| 2026-05-06 17:37 | 52.20214 | -131.61123 | 38304 ft | 407 kts | 301° |
| 2026-05-06 17:37 | 52.23535 | -131.68583 | 38305 ft | 406 kts | 301° |
| 2026-05-06 17:38 | 52.26849 | -131.76050 | 38311 ft | 406 kts | 301° |
| 2026-05-06 17:38 | 52.30157 | -131.83525 | 38308 ft | 406 kts | 301° |
| 2026-05-06 17:39 | 52.33461 | -131.91013 | 38312 ft | 406 kts | 301° |
| 2026-05-06 17:39 | 52.36765 | -131.98521 | 38312 ft | 407 kts | 300° |
| 2026-05-06 17:40 | 52.40071 | -132.06059 | 38311 ft | 407 kts | 300° |
| 2026-05-06 17:40 | 52.43352 | -132.13561 | 38292 ft | 407 kts | 300° |
| 2026-05-06 17:41 | 52.46654 | -132.21131 | 38297 ft | 408 kts | 300° |
| 2026-05-06 17:41 | 52.49952 | -132.28716 | 38297 ft | 408 kts | 300° |
| 2026-05-06 17:42 | 52.53253 | -132.36331 | 38304 ft | 409 kts | 300° |
| 2026-05-06 17:42 | 52.56534 | -132.43920 | 38310 ft | 410 kts | 300° |
| 2026-05-06 17:43 | 52.59830 | -132.51568 | 38316 ft | 409 kts | 300° |
| 2026-05-06 17:43 | 52.63119 | -132.59224 | 38312 ft | 409 kts | 300° |
| 2026-05-06 17:44 | 52.66402 | -132.66889 | 38316 ft | 409 kts | 300° |
| 2026-05-06 17:44 | 52.69682 | -132.74568 | 38314 ft | 410 kts | 300° |
| 2026-05-06 17:45 | 52.72960 | -132.82266 | 38319 ft | 410 kts | 300° |
| 2026-05-06 17:45 | 52.76243 | -132.89999 | 38313 ft | 411 kts | 300° |
| 2026-05-06 17:46 | 52.79522 | -132.97748 | 38317 ft | 411 kts | 299° |
| 2026-05-06 17:46 | 52.82775 | -133.05459 | 38317 ft | 411 kts | 299° |
| 2026-05-06 17:47 | 52.86046 | -133.13235 | 38325 ft | 412 kts | 299° |
| 2026-05-06 17:47 | 52.89319 | -133.21039 | 38325 ft | 411 kts | 299° |
| 2026-05-06 17:48 | 52.92587 | -133.28856 | 38321 ft | 412 kts | 299° |
| 2026-05-06 17:48 | 52.95824 | -133.36621 | 38321 ft | 412 kts | 299° |
| 2026-05-06 17:49 | 52.99079 | -133.44456 | 38320 ft | 412 kts | 299° |
| 2026-05-06 17:49 | 53.02328 | -133.52301 | 38326 ft | 412 kts | 299° |
| 2026-05-06 17:50 | 53.05584 | -133.60184 | 38331 ft | 413 kts | 299° |
| 2026-05-06 17:50 | 53.08830 | -133.68069 | 38325 ft | 413 kts | 298° |
| 2026-05-06 17:51 | 53.12058 | -133.75937 | 38325 ft | 414 kts | 298° |
| 2026-05-06 17:51 | 53.15308 | -133.83880 | 38326 ft | 414 kts | 298° |
| 2026-05-06 17:52 | 53.18546 | -133.91818 | 38331 ft | 414 kts | 298° |
| 2026-05-06 17:52 | 53.21780 | -133.99775 | 38332 ft | 415 kts | 298° |
| 2026-05-06 17:53 | 53.25001 | -134.07722 | 38330 ft | 415 kts | 298° |
| 2026-05-06 17:53 | 53.28227 | -134.15708 | 38329 ft | 415 kts | 298° |
| 2026-05-06 17:54 | 53.31457 | -134.23730 | 38332 ft | 416 kts | 298° |
| 2026-05-06 17:54 | 53.34689 | -134.31780 | 38330 ft | 417 kts | 298° |
| 2026-05-06 17:55 | 53.37916 | -134.39845 | 38333 ft | 417 kts | 298° |
| 2026-05-06 17:55 | 53.41145 | -134.47941 | 38317 ft | 418 kts | 298° |
| 2026-05-06 17:56 | 53.44370 | -134.56051 | 38323 ft | 418 kts | 298° |
| 2026-05-06 17:56 | 53.47591 | -134.64179 | 38332 ft | 418 kts | 298° |
| 2026-05-06 17:57 | 53.50814 | -134.72339 | 38333 ft | 421 kts | 298° |
| 2026-05-06 17:57 | 53.54070 | -134.80615 | 38333 ft | 431 kts | 298° |
| 2026-05-06 17:58 | 53.57388 | -134.89061 | 38323 ft | 435 kts | 298° |
| 2026-05-06 17:58 | 53.60721 | -134.97586 | 38328 ft | 437 kts | 298° |
| 2026-05-06 17:59 | 53.64056 | -135.06138 | 38327 ft | 437 kts | 298° |
| 2026-05-06 17:59 | 53.67388 | -135.14719 | 38330 ft | 437 kts | 297° |
| 2026-05-06 18:00 | 53.70157 | -135.21867 | 38330 ft | 437 kts | 297° |
| 2026-05-06 18:00 | 53.74022 | -135.31886 | 38331 ft | 438 kts | 297° |
| 2026-05-06 18:01 | 53.76805 | -135.39120 | 38327 ft | 438 kts | 297° |
| 2026-05-06 18:01 | 53.80117 | -135.47760 | 38331 ft | 438 kts | 297° |
| 2026-05-06 18:02 | 53.83415 | -135.56392 | 38329 ft | 440 kts | 297° |
| 2026-05-06 18:02 | 53.86737 | -135.65119 | 38325 ft | 441 kts | 297° |
| 2026-05-06 18:03 | 53.90060 | -135.73877 | 38325 ft | 441 kts | 297° |
| 2026-05-06 18:03 | 53.93384 | -135.82671 | 38325 ft | 442 kts | 297° |
| 2026-05-06 18:04 | 53.96697 | -135.91463 | 38332 ft | 443 kts | 297° |
| 2026-05-06 18:04 | 54.00004 | -136.00314 | 38315 ft | 442 kts | 294° |
| 2026-05-06 18:05 | 54.02941 | -136.09395 | 38319 ft | 441 kts | 294° |
| 2026-05-06 18:05 | 54.05898 | -136.18543 | 38324 ft | 441 kts | 294° |
| 2026-05-06 18:06 | 54.08842 | -136.27737 | 38325 ft | 442 kts | 294° |
| 2026-05-06 18:06 | 54.11784 | -136.36926 | 38323 ft | 442 kts | 294° |
| 2026-05-06 18:07 | 54.14714 | -136.46133 | 38324 ft | 441 kts | 294° |
| 2026-05-06 18:07 | 54.17638 | -136.55348 | 38324 ft | 441 kts | 293° |
| 2026-05-06 18:08 | 54.20555 | -136.64578 | 38320 ft | 442 kts | 293° |
| 2026-05-06 18:08 | 54.23466 | -136.73824 | 38317 ft | 442 kts | 293° |
| 2026-05-06 18:09 | 54.26358 | -136.83045 | 38324 ft | 443 kts | 293° |
| 2026-05-06 18:09 | 54.29261 | -136.92334 | 38324 ft | 443 kts | 293° |
| 2026-05-06 18:10 | 54.32170 | -137.01681 | 38318 ft | 444 kts | 293° |
| 2026-05-06 18:10 | 54.35076 | -137.11055 | 38316 ft | 445 kts | 293° |
| 2026-05-06 18:11 | 54.37954 | -137.20375 | 38317 ft | 445 kts | 293° |
| 2026-05-06 18:11 | 54.40852 | -137.29797 | 38316 ft | 446 kts | 293° |
| 2026-05-06 18:12 | 54.43741 | -137.39225 | 38315 ft | 446 kts | 293° |
| 2026-05-06 18:12 | 54.46620 | -137.48659 | 38316 ft | 445 kts | 293° |
| 2026-05-06 18:13 | 54.49472 | -137.58044 | 38320 ft | 445 kts | 292° |
| 2026-05-06 18:13 | 54.52338 | -137.67508 | 38315 ft | 446 kts | 292° |
| 2026-05-06 18:14 | 54.55200 | -137.76998 | 38313 ft | 447 kts | 292° |
| 2026-05-06 18:14 | 54.58060 | -137.86524 | 38313 ft | 447 kts | 292° |
| 2026-05-06 18:15 | 54.60920 | -137.96082 | 38303 ft | 448 kts | 292° |
| 2026-05-06 18:15 | 54.63770 | -138.05648 | 38306 ft | 448 kts | 292° |
| 2026-05-06 18:16 | 54.66616 | -138.15238 | 38308 ft | 449 kts | 292° |
| 2026-05-06 18:16 | 54.69458 | -138.24854 | 38307 ft | 449 kts | 292° |
| 2026-05-06 18:17 | 54.72258 | -138.34366 | 38306 ft | 449 kts | 292° |
| 2026-05-06 18:17 | 54.75090 | -138.44028 | 38303 ft | 450 kts | 292° |
| 2026-05-06 18:18 | 54.77893 | -138.53631 | 38302 ft | 450 kts | 292° |
| 2026-05-06 18:18 | 54.80719 | -138.63352 | 38296 ft | 451 kts | 292° |
| 2026-05-06 18:19 | 54.83532 | -138.73066 | 38300 ft | 451 kts | 292° |
| 2026-05-06 18:19 | 54.86344 | -138.82820 | 38288 ft | 452 kts | 292° |
| 2026-05-06 18:20 | 54.89151 | -138.92597 | 38283 ft | 452 kts | 291° |
| 2026-05-06 18:20 | 54.91837 | -139.01989 | 38291 ft | 453 kts | 291° |
| 2026-05-06 18:21 | 54.94638 | -139.11824 | 38294 ft | 454 kts | 291° |
| 2026-05-06 18:21 | 54.97430 | -139.21671 | 38293 ft | 454 kts | 291° |
| 2026-05-06 18:22 | 55.00221 | -139.31554 | 38293 ft | 455 kts | 291° |
| 2026-05-06 18:22 | 55.03004 | -139.41454 | 38292 ft | 455 kts | 291° |
| 2026-05-06 18:23 | 55.05784 | -139.51385 | 38286 ft | 456 kts | 291° |
| 2026-05-06 18:23 | 55.08546 | -139.61291 | 38287 ft | 457 kts | 291° |
| 2026-05-06 18:24 | 55.11317 | -139.71275 | 38288 ft | 457 kts | 291° |
| 2026-05-06 18:24 | 55.14081 | -139.81277 | 38280 ft | 458 kts | 291° |
| 2026-05-06 18:25 | 55.16854 | -139.91355 | 38284 ft | 459 kts | 291° |
| 2026-05-06 18:25 | 55.19622 | -140.01457 | 38282 ft | 460 kts | 291° |
| 2026-05-06 18:26 | 55.22364 | -140.11511 | 38288 ft | 461 kts | 291° |
| 2026-05-06 18:26 | 55.25120 | -140.21662 | 38277 ft | 461 kts | 291° |
| 2026-05-06 18:27 | 55.27871 | -140.31836 | 38275 ft | 461 kts | 290° |
| 2026-05-06 18:27 | 55.30610 | -140.42015 | 38264 ft | 461 kts | 290° |
| 2026-05-06 18:28 | 55.33344 | -140.52216 | 38273 ft | 461 kts | 290° |
| 2026-05-06 18:28 | 55.36063 | -140.62412 | 38259 ft | 461 kts | 290° |
| 2026-05-06 18:29 | 55.38779 | -140.72638 | 38260 ft | 461 kts | 290° |
| 2026-05-06 18:29 | 55.41466 | -140.82804 | 38263 ft | 461 kts | 290° |
| 2026-05-06 18:30 | 55.44159 | -140.93038 | 38263 ft | 461 kts | 290° |
| 2026-05-06 18:30 | 55.46855 | -141.03331 | 38256 ft | 462 kts | 290° |
| 2026-05-06 18:31 | 55.49540 | -141.13627 | 38258 ft | 462 kts | 290° |
| 2026-05-06 18:31 | 55.52218 | -141.23945 | 38251 ft | 462 kts | 290° |
| 2026-05-06 18:32 | 55.54873 | -141.34222 | 38254 ft | 463 kts | 290° |
| 2026-05-06 18:32 | 55.57534 | -141.44570 | 38249 ft | 463 kts | 290° |
| 2026-05-06 18:33 | 55.60196 | -141.54967 | 38243 ft | 463 kts | 290° |
| 2026-05-06 18:33 | 55.62848 | -141.65374 | 38247 ft | 463 kts | 290° |
| 2026-05-06 18:34 | 55.65481 | -141.75757 | 38246 ft | 463 kts | 290° |
| 2026-05-06 18:34 | 55.68094 | -141.86110 | 38243 ft | 463 kts | 289° |
| 2026-05-06 18:35 | 55.70714 | -141.96535 | 38243 ft | 463 kts | 289° |
| 2026-05-06 18:35 | 55.73326 | -142.06981 | 38238 ft | 463 kts | 289° |
| 2026-05-06 18:36 | 55.75930 | -142.17447 | 38235 ft | 464 kts | 289° |
| 2026-05-06 18:36 | 55.78534 | -142.27959 | 38229 ft | 464 kts | 289° |
| 2026-05-06 18:37 | 55.80692 | -142.36708 | 38230 ft | 465 kts | 289° |
| 2026-05-06 18:37 | 55.83719 | -142.49044 | 38230 ft | 466 kts | 289° |
| 2026-05-06 18:38 | 55.86308 | -142.59646 | 38228 ft | 466 kts | 289° |
| 2026-05-06 18:38 | 55.88883 | -142.70244 | 38219 ft | 467 kts | 289° |
| 2026-05-06 18:39 | 55.91436 | -142.80802 | 38221 ft | 467 kts | 289° |
| 2026-05-06 18:40 | 55.95276 | -142.96786 | 38212 ft | 468 kts | 289° |
| 2026-05-06 18:40 | 55.97828 | -143.07470 | 38217 ft | 468 kts | 289° |
| 2026-05-06 18:41 | 56.00376 | -143.18190 | 38212 ft | 468 kts | 289° |
| 2026-05-06 18:41 | 56.02914 | -143.28924 | 38209 ft | 469 kts | 289° |
| 2026-05-06 18:42 | 56.05453 | -143.39711 | 38204 ft | 469 kts | 289° |
| 2026-05-06 18:42 | 56.07961 | -143.50425 | 38203 ft | 469 kts | 288° |
| 2026-05-06 18:43 | 56.10475 | -143.61215 | 38206 ft | 469 kts | 288° |
| 2026-05-06 18:43 | 56.12980 | -143.72027 | 38202 ft | 469 kts | 288° |
| 2026-05-06 18:44 | 56.15463 | -143.82791 | 38185 ft | 469 kts | 288° |
| 2026-05-06 18:44 | 56.17947 | -143.93619 | 38182 ft | 470 kts | 288° |
| 2026-05-06 18:45 | 56.20432 | -144.04506 | 38185 ft | 470 kts | 288° |
| 2026-05-06 18:45 | 56.22900 | -144.15385 | 38191 ft | 470 kts | 288° |
| 2026-05-06 18:46 | 56.25350 | -144.26235 | 38182 ft | 470 kts | 288° |
| 2026-05-06 18:46 | 56.27799 | -144.37143 | 38178 ft | 470 kts | 288° |
| 2026-05-06 18:47 | 56.30238 | -144.48055 | 38180 ft | 470 kts | 288° |
| 2026-05-06 18:47 | 56.32259 | -144.57145 | 38177 ft | 470 kts | 288° |
| 2026-05-06 18:48 | 56.34694 | -144.68151 | 38175 ft | 470 kts | 288° |
| 2026-05-06 18:48 | 56.37093 | -144.79048 | 38170 ft | 470 kts | 288° |
| 2026-05-06 18:49 | 56.39502 | -144.90051 | 38168 ft | 470 kts | 288° |
| 2026-05-06 18:49 | 56.41900 | -145.01058 | 38166 ft | 470 kts | 288° |
| 2026-05-06 18:50 | 56.44271 | -145.11999 | 38163 ft | 470 kts | 288° |
| 2026-05-06 18:50 | 56.46648 | -145.23033 | 38163 ft | 470 kts | 288° |
| 2026-05-06 18:51 | 56.49013 | -145.34065 | 38159 ft | 470 kts | 287° |
| 2026-05-06 18:51 | 56.51368 | -145.45110 | 38156 ft | 470 kts | 287° |
| 2026-05-06 18:52 | 56.53714 | -145.56175 | 38157 ft | 470 kts | 287° |
| 2026-05-06 18:52 | 56.56049 | -145.67248 | 38148 ft | 470 kts | 287° |
| 2026-05-06 18:53 | 56.58359 | -145.78259 | 38148 ft | 470 kts | 287° |
| 2026-05-06 18:53 | 56.60676 | -145.89369 | 38129 ft | 470 kts | 287° |
| 2026-05-06 18:54 | 56.62981 | -146.00478 | 38133 ft | 471 kts | 287° |
| 2026-05-06 18:54 | 56.65284 | -146.11638 | 38135 ft | 471 kts | 287° |
| 2026-05-06 18:55 | 56.67574 | -146.22801 | 38139 ft | 471 kts | 287° |
| 2026-05-06 18:55 | 56.69854 | -146.33975 | 38131 ft | 471 kts | 287° |
| 2026-05-06 18:56 | 56.72129 | -146.45190 | 38132 ft | 472 kts | 287° |
| 2026-05-06 18:56 | 56.74392 | -146.56406 | 38129 ft | 471 kts | 287° |
| 2026-05-06 18:57 | 56.76632 | -146.67571 | 38125 ft | 472 kts | 287° |
| 2026-05-06 18:57 | 56.78876 | -146.78821 | 38120 ft | 472 kts | 287° |
| 2026-05-06 18:58 | 56.81108 | -146.90078 | 38122 ft | 471 kts | 287° |
| 2026-05-06 18:58 | 56.83331 | -147.01352 | 38117 ft | 472 kts | 287° |
| 2026-05-06 18:59 | 56.85545 | -147.12640 | 38114 ft | 473 kts | 287° |
| 2026-05-06 18:59 | 56.87754 | -147.23973 | 38112 ft | 472 kts | 287° |
| 2026-05-06 19:00 | 56.89948 | -147.35295 | 38111 ft | 472 kts | 287° |
| 2026-05-06 19:00 | 56.92131 | -147.46626 | 38104 ft | 472 kts | 287° |
| 2026-05-06 19:01 | 56.94296 | -147.57927 | 38105 ft | 473 kts | 287° |
| 2026-05-06 19:01 | 56.96461 | -147.69301 | 38098 ft | 473 kts | 287° |
| 2026-05-06 19:02 | 56.98620 | -147.80704 | 38098 ft | 472 kts | 287° |
| 2026-05-06 19:02 | 57.00760 | -147.92079 | 38099 ft | 472 kts | 286° |
| 2026-05-06 19:03 | 57.02896 | -148.03500 | 38094 ft | 472 kts | 286° |
| 2026-05-06 19:03 | 57.05017 | -148.14906 | 38094 ft | 472 kts | 286° |
| 2026-05-06 19:04 | 57.07126 | -148.26320 | 38087 ft | 472 kts | 286° |
| 2026-05-06 19:04 | 57.09226 | -148.37757 | 38092 ft | 472 kts | 286° |
| 2026-05-06 19:05 | 57.11303 | -148.49131 | 38092 ft | 472 kts | 286° |
| 2026-05-06 19:05 | 57.13396 | -148.60669 | 38091 ft | 472 kts | 286° |
| 2026-05-06 19:06 | 57.15450 | -148.72063 | 38092 ft | 472 kts | 286° |
| 2026-05-06 19:06 | 57.17510 | -148.83561 | 38094 ft | 472 kts | 286° |
| 2026-05-06 19:07 | 57.19559 | -148.95068 | 38087 ft | 472 kts | 286° |
| 2026-05-06 19:07 | 57.21600 | -149.06603 | 38083 ft | 472 kts | 286° |
| 2026-05-06 19:08 | 57.23629 | -149.18142 | 38081 ft | 472 kts | 286° |
| 2026-05-06 19:08 | 57.25633 | -149.29614 | 38081 ft | 472 kts | 286° |
| 2026-05-06 19:09 | 57.27643 | -149.41189 | 38085 ft | 473 kts | 286° |
| 2026-05-06 19:09 | 57.29645 | -149.52795 | 38081 ft | 474 kts | 286° |
| 2026-05-06 19:10 | 57.31640 | -149.64434 | 38082 ft | 474 kts | 286° |
| 2026-05-06 19:10 | 57.33621 | -149.76068 | 38078 ft | 474 kts | 285° |
| 2026-05-06 19:11 | 57.35581 | -149.87652 | 38079 ft | 474 kts | 285° |
| 2026-05-06 19:11 | 57.37542 | -149.99316 | 38074 ft | 474 kts | 285° |
| 2026-05-06 19:12 | 57.39491 | -150.10989 | 38071 ft | 474 kts | 285° |
| 2026-05-06 19:12 | 57.41430 | -150.22679 | 38069 ft | 474 kts | 285° |
| 2026-05-06 19:13 | 57.43359 | -150.34384 | 38070 ft | 474 kts | 285° |
| 2026-05-06 19:13 | 57.45276 | -150.46097 | 38068 ft | 473 kts | 285° |
| 2026-05-06 19:14 | 57.46866 | -150.57937 | 38068 ft | 472 kts | 279° |
| 2026-05-06 19:14 | 57.48009 | -150.69901 | 38066 ft | 473 kts | 279° |
| 2026-05-06 19:15 | 57.49127 | -150.81955 | 38064 ft | 473 kts | 279° |
| 2026-05-06 19:15 | 57.50244 | -150.94025 | 38063 ft | 474 kts | 279° |
| 2026-05-06 19:16 | 57.51348 | -151.06125 | 38061 ft | 473 kts | 278° |
| 2026-05-06 19:16 | 57.52440 | -151.18214 | 38060 ft | 474 kts | 278° |
| 2026-05-06 19:17 | 57.53513 | -151.30232 | 38061 ft | 474 kts | 278° |
| 2026-05-06 19:17 | 57.54584 | -151.42368 | 38062 ft | 475 kts | 278° |
| 2026-05-06 19:18 | 57.55643 | -151.54497 | 38056 ft | 475 kts | 278° |
| 2026-05-06 19:18 | 57.56692 | -151.66655 | 38055 ft | 475 kts | 278° |
| 2026-05-06 19:19 | 57.57729 | -151.78822 | 38061 ft | 475 kts | 278° |
| 2026-05-06 19:19 | 57.58754 | -151.90990 | 38062 ft | 475 kts | 278° |
| 2026-05-06 19:20 | 57.59766 | -152.03150 | 38059 ft | 475 kts | 278° |
| 2026-05-06 19:20 | 57.60768 | -152.15332 | 38052 ft | 476 kts | 278° |
| 2026-05-06 19:21 | 57.61762 | -152.27570 | 38054 ft | 476 kts | 278° |
| 2026-05-06 19:21 | 57.62744 | -152.39808 | 38060 ft | 476 kts | 278° |
| 2026-05-06 19:22 | 57.63713 | -152.52043 | 38050 ft | 477 kts | 278° |
| 2026-05-06 19:22 | 57.64669 | -152.64271 | 38054 ft | 476 kts | 278° |
| 2026-05-06 19:23 | 57.65615 | -152.76521 | 38040 ft | 476 kts | 278° |
| 2026-05-06 19:23 | 57.66541 | -152.88678 | 38056 ft | 476 kts | 277° |
| 2026-05-06 19:24 | 57.67464 | -153.00948 | 38061 ft | 477 kts | 277° |
| 2026-05-06 19:24 | 57.68374 | -153.13227 | 38073 ft | 477 kts | 277° |
| 2026-05-06 19:25 | 57.69275 | -153.25529 | 38063 ft | 477 kts | 277° |
| 2026-05-06 19:25 | 57.70163 | -153.37840 | 38063 ft | 477 kts | 277° |
| 2026-05-06 19:26 | 57.71033 | -153.50059 | 38070 ft | 477 kts | 277° |
| 2026-05-06 19:26 | 57.71896 | -153.62365 | 38077 ft | 477 kts | 277° |
| 2026-05-06 19:27 | 57.72747 | -153.74662 | 38082 ft | 477 kts | 277° |
| 2026-05-06 19:27 | 57.73587 | -153.86993 | 38092 ft | 478 kts | 277° |
| 2026-05-06 19:28 | 57.74418 | -153.99361 | 38082 ft | 478 kts | 277° |
| 2026-05-06 19:28 | 57.75230 | -154.11645 | 38079 ft | 479 kts | 276° |
| 2026-05-06 19:29 | 57.76040 | -154.24065 | 38083 ft | 480 kts | 276° |
| 2026-05-06 19:29 | 57.76836 | -154.36473 | 38087 ft | 480 kts | 276° |
| 2026-05-06 19:30 | 57.77490 | -154.46818 | 38088 ft | 480 kts | 276° |
| 2026-05-06 19:30 | 57.78265 | -154.59258 | 38094 ft | 481 kts | 276° |
| 2026-05-06 19:31 | 57.79028 | -154.71714 | 38092 ft | 481 kts | 276° |
| 2026-05-06 19:31 | 57.80152 | -154.90430 | 38077 ft | 481 kts | 276° |
| 2026-05-06 19:32 | 57.80885 | -155.02894 | 38082 ft | 480 kts | 276° |
| 2026-05-06 19:32 | 57.81604 | -155.15339 | 38085 ft | 480 kts | 276° |
| 2026-05-06 19:33 | 57.82309 | -155.27752 | 38095 ft | 481 kts | 276° |
| 2026-05-06 19:33 | 57.83004 | -155.40225 | 38105 ft | 481 kts | 275° |
| 2026-05-06 19:34 | 57.83689 | -155.52716 | 38116 ft | 481 kts | 275° |
| 2026-05-06 19:34 | 57.84362 | -155.65247 | 38129 ft | 482 kts | 275° |
| 2026-05-06 19:35 | 57.85024 | -155.77796 | 38134 ft | 482 kts | 275° |
| 2026-05-06 19:35 | 57.85673 | -155.90325 | 38142 ft | 481 kts | 275° |
| 2026-05-06 19:36 | 57.86304 | -156.02766 | 38146 ft | 482 kts | 275° |
| 2026-05-06 19:36 | 57.86930 | -156.15344 | 38146 ft | 483 kts | 275° |
| 2026-05-06 19:37 | 57.87542 | -156.27883 | 38151 ft | 483 kts | 275° |
| 2026-05-06 19:37 | 57.88142 | -156.40464 | 38148 ft | 484 kts | 275° |
| 2026-05-06 19:38 | 57.88731 | -156.53063 | 38145 ft | 484 kts | 275° |
| 2026-05-06 19:38 | 57.89308 | -156.65680 | 38145 ft | 484 kts | 275° |
| 2026-05-06 19:39 | 57.89874 | -156.78329 | 38150 ft | 485 kts | 274° |
| 2026-05-06 19:39 | 57.90427 | -156.90958 | 38141 ft | 485 kts | 274° |
| 2026-05-06 19:40 | 57.90967 | -157.03609 | 38142 ft | 486 kts | 274° |
| 2026-05-06 19:40 | 57.91496 | -157.16285 | 38142 ft | 486 kts | 274° |
| 2026-05-06 19:41 | 57.92008 | -157.28880 | 38147 ft | 486 kts | 274° |
| 2026-05-06 19:41 | 57.92512 | -157.41566 | 38147 ft | 486 kts | 274° |
| 2026-05-06 19:42 | 57.93004 | -157.54272 | 38150 ft | 486 kts | 274° |
| 2026-05-06 19:42 | 57.93483 | -157.66982 | 38150 ft | 485 kts | 274° |
| 2026-05-06 19:43 | 57.93947 | -157.79635 | 38148 ft | 485 kts | 274° |
| 2026-05-06 19:43 | 57.94400 | -157.92348 | 38148 ft | 486 kts | 274° |
| 2026-05-06 19:44 | 57.94841 | -158.05043 | 38150 ft | 486 kts | 274° |
| 2026-05-06 19:44 | 57.95266 | -158.17677 | 38152 ft | 486 kts | 274° |
| 2026-05-06 19:45 | 57.95684 | -158.30469 | 38147 ft | 486 kts | 274° |
| 2026-05-06 19:45 | 57.96084 | -158.43111 | 38150 ft | 486 kts | 274° |
| 2026-05-06 19:46 | 57.96474 | -158.55833 | 38148 ft | 486 kts | 273° |
| 2026-05-06 19:46 | 57.96851 | -158.68547 | 38149 ft | 486 kts | 273° |
| 2026-05-06 19:47 | 57.97216 | -158.81283 | 38143 ft | 487 kts | 273° |
| 2026-05-06 19:47 | 57.97569 | -158.94043 | 38141 ft | 487 kts | 273° |
| 2026-05-06 19:48 | 57.97907 | -159.06734 | 38146 ft | 487 kts | 273° |
| 2026-05-06 19:48 | 57.98234 | -159.19505 | 38142 ft | 487 kts | 273° |
| 2026-05-06 19:49 | 57.98547 | -159.32230 | 38144 ft | 487 kts | 273° |
| 2026-05-06 19:49 | 57.98849 | -159.45004 | 38141 ft | 487 kts | 273° |
| 2026-05-06 19:50 | 57.99138 | -159.57762 | 38138 ft | 487 kts | 273° |
| 2026-05-06 19:50 | 57.99413 | -159.70520 | 38156 ft | 487 kts | 273° |
| 2026-05-06 19:51 | 57.99677 | -159.83298 | 38151 ft | 487 kts | 272° |
| 2026-05-06 19:51 | 57.99926 | -159.96004 | 38149 ft | 487 kts | 272° |
| 2026-05-06 19:52 | 57.99633 | -160.08759 | 38150 ft | 488 kts | 266° |
| 2026-05-06 19:52 | 57.99113 | -160.21529 | 38159 ft | 487 kts | 266° |
| 2026-05-06 19:53 | 57.98557 | -160.34285 | 38158 ft | 488 kts | 266° |
| 2026-05-06 19:53 | 57.98005 | -160.46956 | 38153 ft | 487 kts | 266° |
| 2026-05-06 19:54 | 57.97430 | -160.59692 | 38151 ft | 487 kts | 266° |
| 2026-05-06 19:54 | 57.96848 | -160.72397 | 38159 ft | 487 kts | 266° |
| 2026-05-06 19:55 | 57.96251 | -160.85112 | 38152 ft | 487 kts | 266° |
| 2026-05-06 19:55 | 57.95642 | -160.97807 | 38154 ft | 487 kts | 266° |
| 2026-05-06 19:56 | 57.95021 | -161.10492 | 38163 ft | 486 kts | 266° |
| 2026-05-06 19:56 | 57.94386 | -161.23183 | 38158 ft | 487 kts | 266° |
| 2026-05-06 19:57 | 57.93743 | -161.35800 | 38158 ft | 487 kts | 266° |
| 2026-05-06 19:57 | 57.93083 | -161.48492 | 38155 ft | 487 kts | 265° |
| 2026-05-06 19:58 | 57.92410 | -161.61172 | 38160 ft | 487 kts | 265° |
| 2026-05-06 19:58 | 57.91726 | -161.73843 | 38162 ft | 486 kts | 265° |
| 2026-05-06 19:59 | 57.91029 | -161.86503 | 38155 ft | 486 kts | 265° |
| 2026-05-06 19:59 | 57.90323 | -161.99085 | 38158 ft | 486 kts | 265° |
| 2026-05-06 20:00 | 57.89602 | -162.11721 | 38156 ft | 485 kts | 265° |
| 2026-05-06 20:00 | 57.88869 | -162.24333 | 38159 ft | 485 kts | 265° |
| 2026-05-06 20:01 | 57.88123 | -162.36951 | 38162 ft | 486 kts | 265° |
| 2026-05-06 20:01 | 57.87364 | -162.49582 | 38163 ft | 486 kts | 265° |
| 2026-05-06 20:02 | 57.86591 | -162.62216 | 38162 ft | 486 kts | 265° |
| 2026-05-06 20:02 | 57.85813 | -162.74735 | 38163 ft | 486 kts | 265° |
| 2026-05-06 20:03 | 57.85017 | -162.87330 | 38166 ft | 485 kts | 265° |
| 2026-05-06 20:03 | 57.84209 | -162.99924 | 38162 ft | 485 kts | 265° |
| 2026-05-06 20:04 | 57.83391 | -163.12469 | 38166 ft | 484 kts | 264° |
| 2026-05-06 20:04 | 57.82559 | -163.25028 | 38163 ft | 484 kts | 264° |
| 2026-05-06 20:05 | 57.81716 | -163.37566 | 38158 ft | 484 kts | 264° |
| 2026-05-06 20:05 | 57.80860 | -163.50096 | 38159 ft | 484 kts | 264° |
| 2026-05-06 20:06 | 57.79994 | -163.62603 | 38158 ft | 483 kts | 264° |
| 2026-05-06 20:06 | 57.79119 | -163.75042 | 38157 ft | 484 kts | 264° |
| 2026-05-06 20:07 | 57.78227 | -163.87548 | 38162 ft | 484 kts | 264° |
| 2026-05-06 20:07 | 57.77323 | -164.00052 | 38156 ft | 484 kts | 264° |
| 2026-05-06 20:08 | 57.76406 | -164.12542 | 38155 ft | 484 kts | 264° |
| 2026-05-06 20:08 | 57.75476 | -164.25044 | 38160 ft | 484 kts | 263° |
| 2026-05-06 20:09 | 57.74541 | -164.37448 | 38160 ft | 483 kts | 263° |
| 2026-05-06 20:09 | 57.73588 | -164.49922 | 38158 ft | 483 kts | 263° |
| 2026-05-06 20:10 | 57.72625 | -164.62356 | 38160 ft | 483 kts | 263° |
| 2026-05-06 20:10 | 57.71647 | -164.74821 | 38160 ft | 483 kts | 263° |
| 2026-05-06 20:11 | 57.70659 | -164.87248 | 38159 ft | 482 kts | 263° |
| 2026-05-06 20:11 | 57.69667 | -164.99568 | 38160 ft | 483 kts | 263° |
| 2026-05-06 20:12 | 57.68654 | -165.11994 | 38156 ft | 483 kts | 263° |
| 2026-05-06 20:12 | 57.67630 | -165.24397 | 38159 ft | 483 kts | 263° |
| 2026-05-06 20:13 | 57.66593 | -165.36811 | 38159 ft | 483 kts | 263° |
| 2026-05-06 20:13 | 57.65715 | -165.47198 | 38163 ft | 483 kts | 263° |
| 2026-05-06 20:14 | 57.64665 | -165.59482 | 38159 ft | 482 kts | 263° |
| 2026-05-06 20:14 | 57.63596 | -165.71843 | 38160 ft | 482 kts | 263° |
| 2026-05-06 20:15 | 57.62515 | -165.84194 | 38163 ft | 481 kts | 263° |
| 2026-05-06 20:15 | 57.61426 | -165.96496 | 38163 ft | 481 kts | 263° |
| 2026-05-06 20:16 | 57.60325 | -166.08783 | 38161 ft | 480 kts | 262° |
| 2026-05-06 20:16 | 57.59212 | -166.21074 | 38163 ft | 480 kts | 262° |
| 2026-05-06 20:17 | 57.58090 | -166.33325 | 38162 ft | 480 kts | 262° |
| 2026-05-06 20:17 | 57.56955 | -166.45574 | 38164 ft | 480 kts | 262° |
| 2026-05-06 20:18 | 57.55809 | -166.57807 | 38163 ft | 479 kts | 262° |
| 2026-05-06 20:18 | 57.54652 | -166.70031 | 38158 ft | 479 kts | 262° |
| 2026-05-06 20:19 | 57.53493 | -166.82139 | 38159 ft | 478 kts | 262° |
| 2026-05-06 20:19 | 57.52315 | -166.94320 | 38162 ft | 478 kts | 262° |
| 2026-05-06 20:20 | 57.51126 | -167.06477 | 38162 ft | 477 kts | 262° |
| 2026-05-06 20:20 | 57.49927 | -167.18622 | 38164 ft | 477 kts | 262° |
| 2026-05-06 20:21 | 57.48715 | -167.30766 | 38168 ft | 477 kts | 262° |
| 2026-05-06 20:21 | 57.47492 | -167.42894 | 38166 ft | 477 kts | 261° |
| 2026-05-06 20:22 | 57.46256 | -167.55030 | 38162 ft | 478 kts | 261° |
| 2026-05-06 20:22 | 57.45007 | -167.67160 | 38167 ft | 478 kts | 261° |
| 2026-05-06 20:23 | 57.43746 | -167.79297 | 38167 ft | 478 kts | 261° |
| 2026-05-06 20:23 | 57.42473 | -167.91432 | 38162 ft | 479 kts | 261° |
| 2026-05-06 20:24 | 57.41188 | -168.03556 | 38175 ft | 479 kts | 261° |
| 2026-05-06 20:24 | 57.39890 | -168.15681 | 38168 ft | 479 kts | 261° |
| 2026-05-06 20:25 | 57.38591 | -168.27703 | 38164 ft | 478 kts | 261° |
| 2026-05-06 20:25 | 57.37271 | -168.39801 | 38159 ft | 478 kts | 260° |
| 2026-05-06 20:26 | 57.35941 | -168.51879 | 38162 ft | 477 kts | 260° |
| 2026-05-06 20:26 | 57.34602 | -168.63925 | 38166 ft | 478 kts | 260° |
| 2026-05-06 20:27 | 57.33247 | -168.75999 | 38161 ft | 479 kts | 260° |
| 2026-05-06 20:27 | 57.31880 | -168.88073 | 38160 ft | 479 kts | 260° |
| 2026-05-06 20:28 | 57.30501 | -169.00140 | 38155 ft | 479 kts | 259° |
| 2026-05-06 20:28 | 57.29120 | -169.12113 | 38154 ft | 478 kts | 259° |
| 2026-05-06 20:29 | 57.27722 | -169.24128 | 38157 ft | 478 kts | 259° |
| 2026-05-06 20:29 | 57.26313 | -169.36128 | 38154 ft | 478 kts | 259° |
| 2026-05-06 20:30 | 57.24181 | -169.54085 | 38157 ft | 477 kts | 259° |
| 2026-05-06 20:31 | 57.22746 | -169.66044 | 38155 ft | 477 kts | 259° |
| 2026-05-06 20:31 | 57.21298 | -169.78003 | 38157 ft | 477 kts | 258° |
| 2026-05-06 20:32 | 57.19836 | -169.89980 | 38161 ft | 478 kts | 258° |
| 2026-05-06 20:32 | 57.18363 | -170.01938 | 38167 ft | 478 kts | 258° |
| 2026-05-06 20:33 | 57.16887 | -170.13822 | 38168 ft | 478 kts | 258° |
| 2026-05-06 20:33 | 57.15576 | -170.25799 | 38186 ft | 476 kts | 265° |
| 2026-05-06 20:34 | 57.14927 | -170.37970 | 38182 ft | 477 kts | 265° |
| 2026-05-06 20:34 | 57.14281 | -170.50140 | 38177 ft | 477 kts | 265° |
| 2026-05-06 20:35 | 57.13613 | -170.62310 | 38176 ft | 477 kts | 264° |
| 2026-05-06 20:35 | 57.12940 | -170.74445 | 38166 ft | 477 kts | 264° |
| 2026-05-06 20:36 | 57.12253 | -170.86586 | 38164 ft | 477 kts | 264° |
| 2026-05-06 20:36 | 57.11555 | -170.98720 | 38157 ft | 477 kts | 264° |
| 2026-05-06 20:37 | 57.10850 | -171.10764 | 38148 ft | 476 kts | 264° |
| 2026-05-06 20:37 | 57.10127 | -171.22900 | 38151 ft | 477 kts | 264° |
| 2026-05-06 20:38 | 57.09394 | -171.35018 | 38148 ft | 477 kts | 264° |
| 2026-05-06 20:38 | 57.08648 | -171.47151 | 38148 ft | 477 kts | 263° |
| 2026-05-06 20:39 | 57.07892 | -171.59260 | 38144 ft | 477 kts | 263° |
| 2026-05-06 20:39 | 57.07121 | -171.71393 | 38144 ft | 478 kts | 263° |
| 2026-05-06 20:40 | 57.06338 | -171.83550 | 38142 ft | 478 kts | 263° |
| 2026-05-06 20:40 | 57.05542 | -171.95704 | 38142 ft | 479 kts | 263° |
| 2026-05-06 20:41 | 57.04740 | -172.07767 | 38142 ft | 479 kts | 263° |
| 2026-05-06 20:41 | 57.03921 | -172.19911 | 38143 ft | 480 kts | 262° |
| 2026-05-06 20:42 | 57.03089 | -172.32076 | 38140 ft | 480 kts | 262° |
| 2026-05-06 20:42 | 57.02244 | -172.44240 | 38140 ft | 480 kts | 262° |
| 2026-05-06 20:43 | 57.01388 | -172.56389 | 38135 ft | 481 kts | 262° |
| 2026-05-06 20:43 | 57.00516 | -172.68593 | 38132 ft | 482 kts | 262° |
| 2026-05-06 20:44 | 56.99631 | -172.80795 | 38133 ft | 483 kts | 262° |
| 2026-05-06 20:44 | 56.98733 | -172.93019 | 38134 ft | 484 kts | 261° |
| 2026-05-06 20:45 | 56.97822 | -173.05252 | 38127 ft | 484 kts | 261° |
| 2026-05-06 20:45 | 56.96905 | -173.17396 | 38127 ft | 484 kts | 261° |
| 2026-05-06 20:46 | 56.95969 | -173.29636 | 38123 ft | 485 kts | 261° |
| 2026-05-06 20:46 | 56.95021 | -173.41863 | 38124 ft | 485 kts | 261° |
| 2026-05-06 20:47 | 56.94061 | -173.54092 | 38131 ft | 485 kts | 261° |
| 2026-05-06 20:47 | 56.93087 | -173.66334 | 38123 ft | 486 kts | 260° |
| 2026-05-06 20:48 | 56.92100 | -173.78584 | 38121 ft | 486 kts | 260° |
| 2026-05-06 20:48 | 56.91277 | -173.90876 | 38119 ft | 487 kts | 264° |
| 2026-05-06 20:49 | 56.90805 | -174.03276 | 38117 ft | 488 kts | 264° |
| 2026-05-06 20:49 | 56.90323 | -174.15673 | 38117 ft | 489 kts | 264° |
| 2026-05-06 20:50 | 56.89830 | -174.28032 | 38110 ft | 490 kts | 264° |
| 2026-05-06 20:50 | 56.89320 | -174.40476 | 38110 ft | 491 kts | 264° |
| 2026-05-06 20:51 | 56.88797 | -174.52985 | 38102 ft | 491 kts | 264° |
| 2026-05-06 20:51 | 56.88261 | -174.65457 | 38110 ft | 492 kts | 263° |
| 2026-05-06 20:52 | 56.87716 | -174.77869 | 38106 ft | 493 kts | 263° |
| 2026-05-06 20:52 | 56.87155 | -174.90358 | 38099 ft | 493 kts | 263° |
| 2026-05-06 20:53 | 56.86578 | -175.02901 | 38100 ft | 495 kts | 263° |
| 2026-05-06 20:53 | 56.85989 | -175.15453 | 38099 ft | 496 kts | 263° |
| 2026-05-06 20:54 | 56.85386 | -175.28019 | 38093 ft | 497 kts | 263° |
| 2026-05-06 20:54 | 56.84768 | -175.40621 | 38093 ft | 498 kts | 262° |
| 2026-05-06 20:55 | 56.84138 | -175.53226 | 38088 ft | 498 kts | 262° |
| 2026-05-06 20:55 | 56.83494 | -175.65836 | 38088 ft | 498 kts | 262° |
| 2026-05-06 20:56 | 56.82843 | -175.78337 | 38081 ft | 498 kts | 262° |
| 2026-05-06 20:56 | 56.82059 | -175.90864 | 38093 ft | 495 kts | 257° |
| 2026-05-06 20:57 | 56.80861 | -176.03317 | 38072 ft | 498 kts | 257° |
| 2026-05-06 20:57 | 56.79647 | -176.15785 | 38072 ft | 499 kts | 257° |
| 2026-05-06 20:58 | 56.78627 | -176.26159 | 38071 ft | 500 kts | 257° |
| 2026-05-06 20:58 | 56.77389 | -176.38646 | 38062 ft | 500 kts | 257° |
| 2026-05-06 20:59 | 56.76136 | -176.51114 | 38060 ft | 500 kts | 257° |
| 2026-05-06 20:59 | 56.74874 | -176.63578 | 38062 ft | 501 kts | 257° |
| 2026-05-06 21:00 | 56.73594 | -176.76064 | 38047 ft | 501 kts | 257° |
| 2026-05-06 21:00 | 56.72303 | -176.88540 | 38047 ft | 502 kts | 256° |
| 2026-05-06 21:01 | 56.70997 | -177.01019 | 38049 ft | 503 kts | 256° |
| 2026-05-06 21:01 | 56.69682 | -177.13470 | 38046 ft | 504 kts | 256° |
| 2026-05-06 21:02 | 56.68344 | -177.26000 | 38047 ft | 504 kts | 256° |
| 2026-05-06 21:02 | 56.66995 | -177.38514 | 38044 ft | 505 kts | 256° |
| 2026-05-06 21:03 | 56.65629 | -177.51053 | 38030 ft | 505 kts | 256° |
| 2026-05-06 21:03 | 56.64253 | -177.63574 | 38028 ft | 505 kts | 256° |
| 2026-05-06 21:04 | 56.62861 | -177.76094 | 38027 ft | 506 kts | 255° |
| 2026-05-06 21:04 | 56.61456 | -177.88631 | 38023 ft | 506 kts | 255° |
| 2026-05-06 21:05 | 56.60045 | -178.01089 | 38016 ft | 507 kts | 255° |
| 2026-05-06 21:05 | 56.58612 | -178.13612 | 38015 ft | 507 kts | 255° |
| 2026-05-06 21:06 | 56.57167 | -178.26149 | 38014 ft | 507 kts | 255° |
| 2026-05-06 21:06 | 56.55708 | -178.38654 | 38005 ft | 507 kts | 255° |
| 2026-05-06 21:07 | 56.54235 | -178.51187 | 38006 ft | 508 kts | 255° |
| 2026-05-06 21:07 | 56.52751 | -178.63688 | 37996 ft | 507 kts | 255° |
| 2026-05-06 21:08 | 56.51252 | -178.76203 | 37994 ft | 508 kts | 254° |
| 2026-05-06 21:08 | 56.49750 | -178.88619 | 37987 ft | 508 kts | 254° |
| 2026-05-06 21:09 | 56.48226 | -179.01110 | 37985 ft | 508 kts | 254° |
| 2026-05-06 21:09 | 56.46691 | -179.13582 | 37983 ft | 508 kts | 254° |
| 2026-05-06 21:10 | 56.45142 | -179.26053 | 37971 ft | 508 kts | 254° |
| 2026-05-06 21:10 | 56.43578 | -179.38534 | 37965 ft | 509 kts | 254° |
| 2026-05-06 21:11 | 56.42000 | -179.51015 | 37969 ft | 509 kts | 253° |
| 2026-05-06 21:11 | 56.40408 | -179.63498 | 37961 ft | 510 kts | 253° |
| 2026-05-06 21:12 | 56.38802 | -179.75988 | 37960 ft | 511 kts | 253° |
| 2026-05-06 21:12 | 56.37191 | -179.88403 | 37956 ft | 511 kts | 253° |
| 2026-05-06 21:13 | 56.35556 | 179.99110 | 37955 ft | 512 kts | 253° |
| 2026-05-06 21:13 | 56.33906 | 179.86606 | 37949 ft | 512 kts | 253° |
| 2026-05-06 21:14 | 56.32243 | 179.74112 | 37937 ft | 512 kts | 253° |
| 2026-05-06 21:14 | 56.30563 | 179.61599 | 37935 ft | 514 kts | 253° |
| 2026-05-06 21:15 | 56.28871 | 179.49092 | 37915 ft | 514 kts | 253° |
| 2026-05-06 21:15 | 56.27162 | 179.36575 | 37918 ft | 515 kts | 252° |
| 2026-05-06 21:16 | 56.25438 | 179.24047 | 37920 ft | 515 kts | 252° |
| 2026-05-06 21:16 | 56.23717 | 179.11639 | 37915 ft | 515 kts | 252° |
| 2026-05-06 21:17 | 56.21966 | 178.99125 | 37908 ft | 515 kts | 252° |
| 2026-05-06 21:17 | 56.20208 | 178.86658 | 37898 ft | 515 kts | 252° |
| 2026-05-06 21:18 | 56.18436 | 178.74192 | 37899 ft | 514 kts | 252° |
| 2026-05-06 21:18 | 56.16654 | 178.61755 | 37896 ft | 515 kts | 252° |
| 2026-05-06 21:19 | 56.14863 | 178.49356 | 37890 ft | 515 kts | 252° |
| 2026-05-06 21:19 | 56.13050 | 178.36902 | 37875 ft | 515 kts | 252° |
| 2026-05-06 21:20 | 56.11228 | 178.24485 | 37878 ft | 516 kts | 251° |
| 2026-05-06 21:20 | 56.09388 | 178.12037 | 37871 ft | 516 kts | 251° |
| 2026-05-06 21:21 | 56.07499 | 177.99653 | 37869 ft | 515 kts | 250° |
| 2026-05-06 21:21 | 56.05468 | 177.87348 | 37862 ft | 515 kts | 250° |
| 2026-05-06 21:22 | 56.03503 | 177.75006 | 37853 ft | 515 kts | 250° |
| 2026-05-06 21:22 | 56.01493 | 177.62782 | 37847 ft | 516 kts | 250° |
| 2026-05-06 21:23 | 55.99479 | 177.50447 | 37844 ft | 517 kts | 250° |
| 2026-05-06 21:23 | 55.97441 | 177.38149 | 37840 ft | 516 kts | 250° |
| 2026-05-06 21:24 | 55.95393 | 177.25833 | 37827 ft | 516 kts | 250° |
| 2026-05-06 21:24 | 55.93335 | 177.13563 | 37827 ft | 516 kts | 250° |
| 2026-05-06 21:25 | 55.91264 | 177.01290 | 37802 ft | 516 kts | 250° |
| 2026-05-06 21:25 | 55.89192 | 176.89100 | 37807 ft | 516 kts | 250° |
| 2026-05-06 21:26 | 55.87095 | 176.76851 | 37793 ft | 517 kts | 249° |
| 2026-05-06 21:26 | 55.84989 | 176.64627 | 37796 ft | 517 kts | 249° |
| 2026-05-06 21:27 | 55.82866 | 176.52392 | 37790 ft | 517 kts | 249° |
| 2026-05-06 21:27 | 55.80733 | 176.40173 | 37785 ft | 518 kts | 249° |
| 2026-05-06 21:28 | 55.78579 | 176.27934 | 37779 ft | 518 kts | 249° |
| 2026-05-06 21:28 | 55.76419 | 176.15727 | 37777 ft | 518 kts | 249° |
| 2026-05-06 21:29 | 55.74242 | 176.03526 | 37767 ft | 518 kts | 249° |
| 2026-05-06 21:29 | 55.72055 | 175.91328 | 37760 ft | 518 kts | 249° |
| 2026-05-06 21:30 | 55.69868 | 175.79219 | 37756 ft | 519 kts | 249° |
| 2026-05-06 21:30 | 55.67638 | 175.66958 | 37749 ft | 519 kts | 249° |
| 2026-05-06 21:31 | 55.65423 | 175.54860 | 37747 ft | 519 kts | 249° |
| 2026-05-06 21:31 | 55.63183 | 175.42706 | 37734 ft | 519 kts | 249° |
| 2026-05-06 21:32 | 55.60932 | 175.30551 | 37724 ft | 519 kts | 248° |
| 2026-05-06 21:32 | 55.57535 | 175.12383 | 37719 ft | 518 kts | 248° |
| 2026-05-06 21:33 | 55.55271 | 175.00363 | 37718 ft | 518 kts | 248° |
| 2026-05-06 21:33 | 55.52981 | 174.88294 | 37712 ft | 518 kts | 248° |
| 2026-05-06 21:34 | 55.50686 | 174.76244 | 37705 ft | 518 kts | 248° |
| 2026-05-06 21:34 | 55.48371 | 174.64206 | 37697 ft | 518 kts | 248° |
| 2026-05-06 21:35 | 55.46048 | 174.52189 | 37691 ft | 518 kts | 248° |
| 2026-05-06 21:35 | 55.43716 | 174.40185 | 37683 ft | 518 kts | 248° |
| 2026-05-06 21:36 | 55.41372 | 174.28211 | 37683 ft | 517 kts | 248° |
| 2026-05-06 21:36 | 55.39017 | 174.16240 | 37677 ft | 517 kts | 248° |
| 2026-05-06 21:37 | 55.36667 | 174.04380 | 37676 ft | 517 kts | 248° |
| 2026-05-06 21:37 | 55.34289 | 173.92443 | 37671 ft | 517 kts | 248° |
| 2026-05-06 21:38 | 55.31895 | 173.80504 | 37666 ft | 517 kts | 248° |
| 2026-05-06 21:38 | 55.29514 | 173.68697 | 37668 ft | 515 kts | 248° |
| 2026-05-06 21:39 | 55.27108 | 173.56839 | 37665 ft | 515 kts | 248° |
| 2026-05-06 21:39 | 55.24687 | 173.44981 | 37662 ft | 516 kts | 248° |
| 2026-05-06 21:40 | 55.22260 | 173.33160 | 37653 ft | 516 kts | 248° |
| 2026-05-06 21:40 | 55.19817 | 173.21336 | 37652 ft | 517 kts | 248° |
| 2026-05-06 21:41 | 55.17359 | 173.09505 | 37652 ft | 516 kts | 248° |
| 2026-05-06 21:41 | 55.15309 | 172.99690 | 37643 ft | 516 kts | 248° |
| 2026-05-06 21:42 | 55.12840 | 172.87934 | 37644 ft | 516 kts | 248° |
| 2026-05-06 21:42 | 55.10357 | 172.76180 | 37637 ft | 515 kts | 248° |
| 2026-05-06 21:43 | 55.07855 | 172.64409 | 37638 ft | 515 kts | 247° |
| 2026-05-06 21:43 | 55.05371 | 172.52784 | 37627 ft | 514 kts | 247° |
| 2026-05-06 21:44 | 55.02844 | 172.41025 | 37611 ft | 514 kts | 247° |
| 2026-05-06 21:44 | 55.00339 | 172.29435 | 37615 ft | 513 kts | 247° |
| 2026-05-06 21:45 | 54.97811 | 172.17807 | 37615 ft | 513 kts | 247° |
| 2026-05-06 21:45 | 54.95264 | 172.06154 | 37612 ft | 514 kts | 247° |
| 2026-05-06 21:46 | 54.92150 | 171.95075 | 37633 ft | 509 kts | 231° |
| 2026-05-06 21:46 | 54.87725 | 171.85487 | 37604 ft | 508 kts | 228° |
| 2026-05-06 21:47 | 54.83249 | 171.76102 | 37604 ft | 507 kts | 228° |
| 2026-05-06 21:47 | 54.78777 | 171.66653 | 37603 ft | 507 kts | 228° |
| 2026-05-06 21:48 | 54.74273 | 171.57239 | 37601 ft | 507 kts | 228° |
| 2026-05-06 21:48 | 54.69782 | 171.47854 | 37593 ft | 506 kts | 228° |
| 2026-05-06 21:49 | 54.65279 | 171.38495 | 37594 ft | 506 kts | 228° |
| 2026-05-06 21:49 | 54.60773 | 171.29159 | 37588 ft | 506 kts | 228° |
| 2026-05-06 21:50 | 54.56260 | 171.19844 | 37586 ft | 506 kts | 228° |
| 2026-05-06 21:50 | 54.51739 | 171.10550 | 37584 ft | 506 kts | 228° |
| 2026-05-06 21:51 | 54.47217 | 171.01288 | 37576 ft | 505 kts | 228° |
| 2026-05-06 21:51 | 54.42694 | 170.92061 | 37575 ft | 504 kts | 228° |
| 2026-05-06 21:52 | 54.38168 | 170.82860 | 37578 ft | 503 kts | 228° |
| 2026-05-06 21:52 | 54.33643 | 170.73697 | 37575 ft | 503 kts | 228° |
| 2026-05-06 21:53 | 54.29150 | 170.64632 | 37572 ft | 502 kts | 228° |
| 2026-05-06 21:53 | 54.24625 | 170.55535 | 37562 ft | 502 kts | 228° |
| 2026-05-06 21:54 | 54.20099 | 170.46471 | 37567 ft | 501 kts | 228° |
| 2026-05-06 21:54 | 54.15571 | 170.37435 | 37570 ft | 501 kts | 228° |
| 2026-05-06 21:55 | 54.11030 | 170.28410 | 37561 ft | 501 kts | 228° |
| 2026-05-06 21:55 | 54.06490 | 170.19416 | 37560 ft | 500 kts | 228° |
| 2026-05-06 21:56 | 54.01945 | 170.10447 | 37558 ft | 500 kts | 228° |
| 2026-05-06 21:56 | 53.97428 | 170.01563 | 37560 ft | 499 kts | 228° |
| 2026-05-06 21:57 | 53.92879 | 169.92653 | 37556 ft | 499 kts | 228° |
| 2026-05-06 21:57 | 53.88322 | 169.83754 | 37552 ft | 498 kts | 228° |
| 2026-05-06 21:58 | 53.83759 | 169.74881 | 37548 ft | 498 kts | 228° |
| 2026-05-06 21:58 | 53.79231 | 169.66104 | 37546 ft | 497 kts | 228° |
| 2026-05-06 21:59 | 53.74670 | 169.57297 | 37548 ft | 497 kts | 228° |
| 2026-05-06 21:59 | 53.70112 | 169.48527 | 37543 ft | 497 kts | 228° |
| 2026-05-06 22:00 | 53.65540 | 169.39761 | 37546 ft | 497 kts | 228° |
| 2026-05-06 22:00 | 53.61468 | 169.30383 | 37554 ft | 497 kts | 241° |
| 2026-05-06 22:01 | 53.58174 | 169.20118 | 37542 ft | 498 kts | 241° |
| 2026-05-06 22:01 | 53.54916 | 169.09918 | 37541 ft | 498 kts | 241° |
| 2026-05-06 22:02 | 53.51617 | 168.99689 | 37539 ft | 498 kts | 241° |
| 2026-05-06 22:02 | 53.48309 | 168.89446 | 37532 ft | 498 kts | 241° |
| 2026-05-06 22:03 | 53.44998 | 168.79247 | 37531 ft | 497 kts | 241° |
| 2026-05-06 22:03 | 53.41678 | 168.69064 | 37531 ft | 497 kts | 241° |
| 2026-05-06 22:04 | 53.38356 | 168.58913 | 37534 ft | 497 kts | 241° |
| 2026-05-06 22:04 | 53.35019 | 168.48760 | 37529 ft | 496 kts | 241° |
| 2026-05-06 22:05 | 53.31675 | 168.38628 | 37533 ft | 496 kts | 241° |
| 2026-05-06 22:05 | 53.28349 | 168.28602 | 37535 ft | 495 kts | 241° |
| 2026-05-06 22:06 | 53.24988 | 168.18550 | 37529 ft | 495 kts | 241° |
| 2026-05-06 22:06 | 53.21629 | 168.08522 | 37534 ft | 495 kts | 241° |
| 2026-05-06 22:07 | 53.18254 | 167.98500 | 37526 ft | 495 kts | 241° |
| 2026-05-06 22:07 | 53.14879 | 167.88511 | 37524 ft | 494 kts | 241° |
| 2026-05-06 22:08 | 53.11494 | 167.78538 | 37521 ft | 494 kts | 240° |
| 2026-05-06 22:08 | 53.08105 | 167.68588 | 37523 ft | 494 kts | 240° |
| 2026-05-06 22:09 | 53.04703 | 167.58644 | 37524 ft | 494 kts | 240° |
| 2026-05-06 22:09 | 53.01294 | 167.48720 | 37519 ft | 494 kts | 240° |
| 2026-05-06 22:10 | 52.97909 | 167.38903 | 37527 ft | 494 kts | 240° |
| 2026-05-06 22:10 | 52.94489 | 167.29023 | 37525 ft | 493 kts | 240° |
| 2026-05-06 22:11 | 52.91064 | 167.19170 | 37523 ft | 493 kts | 240° |
| 2026-05-06 22:11 | 52.87630 | 167.09331 | 37526 ft | 493 kts | 240° |
| 2026-05-06 22:12 | 52.84213 | 166.99577 | 37532 ft | 492 kts | 240° |
| 2026-05-06 22:12 | 52.80768 | 166.89780 | 37532 ft | 493 kts | 240° |
| 2026-05-06 22:13 | 52.77309 | 166.79985 | 37531 ft | 492 kts | 240° |
| 2026-05-06 22:13 | 52.73846 | 166.70216 | 37531 ft | 492 kts | 240° |
| 2026-05-06 22:14 | 52.70378 | 166.60470 | 37530 ft | 492 kts | 240° |
| 2026-05-06 22:14 | 52.66911 | 166.50766 | 37534 ft | 492 kts | 240° |
| 2026-05-06 22:15 | 52.63431 | 166.41059 | 37534 ft | 492 kts | 240° |
| 2026-05-06 22:15 | 52.59961 | 166.31423 | 37534 ft | 492 kts | 240° |
| 2026-05-06 22:16 | 52.56469 | 166.21759 | 37540 ft | 492 kts | 240° |
| 2026-05-06 22:16 | 52.52956 | 166.12077 | 37539 ft | 492 kts | 240° |
| 2026-05-06 22:17 | 52.49451 | 166.02452 | 37544 ft | 492 kts | 240° |
| 2026-05-06 22:17 | 52.45928 | 165.92817 | 37543 ft | 491 kts | 240° |
| 2026-05-06 22:18 | 52.42405 | 165.83215 | 37541 ft | 491 kts | 239° |
| 2026-05-06 22:18 | 52.38894 | 165.73687 | 37545 ft | 491 kts | 239° |
| 2026-05-06 22:19 | 52.35356 | 165.64118 | 37547 ft | 490 kts | 239° |
| 2026-05-06 22:19 | 52.31819 | 165.54587 | 37550 ft | 490 kts | 239° |
| 2026-05-06 22:20 | 52.28280 | 165.45088 | 37553 ft | 489 kts | 239° |
| 2026-05-06 22:20 | 52.24753 | 165.35657 | 37553 ft | 489 kts | 239° |
| 2026-05-06 22:21 | 52.21206 | 165.26209 | 37552 ft | 488 kts | 239° |
| 2026-05-06 22:21 | 52.17652 | 165.16772 | 37553 ft | 488 kts | 239° |
| 2026-05-06 22:22 | 52.14084 | 165.07339 | 37558 ft | 488 kts | 239° |
| 2026-05-06 22:22 | 52.10519 | 164.97946 | 37564 ft | 488 kts | 239° |
| 2026-05-06 22:23 | 52.06940 | 164.88551 | 37566 ft | 487 kts | 239° |
| 2026-05-06 22:23 | 52.03363 | 164.79196 | 37564 ft | 487 kts | 239° |
| 2026-05-06 22:24 | 51.99779 | 164.69859 | 37568 ft | 487 kts | 239° |
| 2026-05-06 22:24 | 51.96795 | 164.62107 | 37577 ft | 487 kts | 239° |
| 2026-05-06 22:25 | 51.93203 | 164.52812 | 37570 ft | 486 kts | 239° |
| 2026-05-06 22:25 | 51.89019 | 164.42025 | 37573 ft | 486 kts | 239° |
| 2026-05-06 22:26 | 51.86001 | 164.34273 | 37581 ft | 486 kts | 239° |
| 2026-05-06 22:26 | 51.82413 | 164.25085 | 37588 ft | 486 kts | 239° |
| 2026-05-06 22:27 | 51.78798 | 164.15862 | 37602 ft | 485 kts | 239° |
| 2026-05-06 22:27 | 51.75177 | 164.06658 | 37601 ft | 485 kts | 239° |
| 2026-05-06 22:28 | 51.71544 | 163.97456 | 37603 ft | 485 kts | 238° |
| 2026-05-06 22:28 | 51.67913 | 163.88291 | 37607 ft | 485 kts | 238° |
| 2026-05-06 22:29 | 51.64270 | 163.79130 | 37607 ft | 485 kts | 238° |
| 2026-05-06 22:29 | 51.60626 | 163.69998 | 37608 ft | 485 kts | 238° |
| 2026-05-06 22:30 | 51.56974 | 163.60876 | 37612 ft | 484 kts | 238° |
| 2026-05-06 22:30 | 51.53348 | 163.51851 | 37616 ft | 484 kts | 238° |
| 2026-05-06 22:31 | 51.49684 | 163.42765 | 37619 ft | 484 kts | 238° |
| 2026-05-06 22:31 | 51.46025 | 163.33722 | 37622 ft | 483 kts | 238° |
| 2026-05-06 22:32 | 51.42351 | 163.24674 | 37621 ft | 483 kts | 238° |
| 2026-05-06 22:32 | 51.38679 | 163.15660 | 37623 ft | 483 kts | 238° |
| 2026-05-06 22:33 | 51.35003 | 163.06671 | 37633 ft | 482 kts | 238° |
| 2026-05-06 22:33 | 51.31347 | 162.97762 | 37631 ft | 481 kts | 238° |
| 2026-05-06 22:34 | 51.27664 | 162.88816 | 37634 ft | 481 kts | 238° |
| 2026-05-06 22:34 | 51.23977 | 162.79893 | 37640 ft | 481 kts | 238° |
| 2026-05-06 22:35 | 51.20292 | 162.71002 | 37647 ft | 480 kts | 238° |
| 2026-05-06 22:35 | 51.16599 | 162.62128 | 37646 ft | 479 kts | 238° |
| 2026-05-06 22:36 | 51.12906 | 162.53278 | 37651 ft | 479 kts | 238° |
| 2026-05-06 22:36 | 51.09235 | 162.44514 | 37658 ft | 478 kts | 238° |
| 2026-05-06 22:37 | 51.05549 | 162.35744 | 37661 ft | 477 kts | 238° |
| 2026-05-06 22:37 | 51.01854 | 162.26978 | 37664 ft | 477 kts | 238° |
| 2026-05-06 22:38 | 50.98153 | 162.18233 | 37669 ft | 477 kts | 238° |
| 2026-05-06 22:38 | 50.94442 | 162.09489 | 37674 ft | 477 kts | 238° |
| 2026-05-06 22:39 | 50.90732 | 162.00780 | 37676 ft | 476 kts | 238° |
| 2026-05-06 22:39 | 50.87018 | 161.92089 | 37681 ft | 476 kts | 238° |
| 2026-05-06 22:40 | 50.83316 | 161.83455 | 37687 ft | 476 kts | 238° |
| 2026-05-06 22:40 | 50.79593 | 161.74802 | 37688 ft | 476 kts | 238° |
| 2026-05-06 22:41 | 50.73993 | 161.61838 | 37701 ft | 475 kts | 237° |
| 2026-05-06 22:42 | 50.70262 | 161.53237 | 37708 ft | 475 kts | 237° |
| 2026-05-06 22:42 | 50.66521 | 161.44643 | 37711 ft | 475 kts | 237° |
| 2026-05-06 22:43 | 50.62779 | 161.36070 | 37717 ft | 475 kts | 237° |
| 2026-05-06 22:43 | 50.59021 | 161.27492 | 37719 ft | 475 kts | 237° |
| 2026-05-06 22:44 | 50.55261 | 161.18937 | 37727 ft | 475 kts | 237° |
| 2026-05-06 22:44 | 50.51512 | 161.10440 | 37688 ft | 475 kts | 239° |
| 2026-05-06 22:45 | 50.47808 | 161.02065 | 37740 ft | 463 kts | 239° |
| 2026-05-06 22:45 | 50.44110 | 160.93723 | 37744 ft | 467 kts | 239° |
| 2026-05-06 22:46 | 50.40383 | 160.85359 | 37746 ft | 468 kts | 239° |
| 2026-05-06 22:46 | 50.36644 | 160.76981 | 37745 ft | 470 kts | 239° |
| 2026-05-06 22:47 | 50.32887 | 160.68599 | 37749 ft | 471 kts | 239° |
| 2026-05-06 22:47 | 50.29123 | 160.60221 | 37757 ft | 471 kts | 239° |
| 2026-05-06 22:48 | 50.25347 | 160.51848 | 37768 ft | 471 kts | 239° |
| 2026-05-06 22:48 | 50.21566 | 160.43488 | 37764 ft | 471 kts | 239° |
| 2026-05-06 22:49 | 50.17766 | 160.35123 | 37767 ft | 471 kts | 239° |
| 2026-05-06 22:49 | 50.13976 | 160.26852 | 37773 ft | 472 kts | 239° |
| 2026-05-06 22:50 | 50.10134 | 160.18472 | 37777 ft | 472 kts | 239° |
| 2026-05-06 22:50 | 50.06321 | 160.10193 | 37787 ft | 470 kts | 239° |
| 2026-05-06 22:51 | 50.02531 | 160.01983 | 37792 ft | 469 kts | 239° |
| 2026-05-06 22:51 | 49.98696 | 159.93704 | 37791 ft | 468 kts | 239° |
| 2026-05-06 22:52 | 49.94914 | 159.85564 | 37795 ft | 466 kts | 239° |
| 2026-05-06 22:52 | 49.91114 | 159.77411 | 37803 ft | 465 kts | 239° |
| 2026-05-06 22:53 | 49.87323 | 159.69303 | 37811 ft | 463 kts | 239° |
| 2026-05-06 22:53 | 49.83538 | 159.61231 | 37808 ft | 462 kts | 239° |
| 2026-05-06 22:54 | 49.79763 | 159.53206 | 37820 ft | 460 kts | 239° |
| 2026-05-06 22:54 | 49.75991 | 159.45211 | 37822 ft | 459 kts | 239° |
| 2026-05-06 22:55 | 49.72230 | 159.37263 | 37821 ft | 458 kts | 239° |
| 2026-05-06 22:55 | 49.68436 | 159.29372 | 37822 ft | 457 kts | 238° |
| 2026-05-06 22:56 | 49.64601 | 159.21620 | 37835 ft | 455 kts | 238° |
| 2026-05-06 22:56 | 49.60794 | 159.13825 | 37838 ft | 454 kts | 238° |
| 2026-05-06 22:57 | 49.56966 | 159.06079 | 37838 ft | 453 kts | 238° |
| 2026-05-06 22:57 | 49.53155 | 158.98353 | 37849 ft | 452 kts | 238° |
| 2026-05-06 22:58 | 49.49338 | 158.90655 | 37851 ft | 451 kts | 238° |
| 2026-05-06 22:58 | 49.45527 | 158.82984 | 37849 ft | 450 kts | 238° |
| 2026-05-06 22:59 | 49.41715 | 158.75336 | 37848 ft | 450 kts | 238° |
| 2026-05-06 22:59 | 49.37909 | 158.67723 | 37852 ft | 449 kts | 238° |
| 2026-05-06 23:00 | 49.34127 | 158.60177 | 37854 ft | 449 kts | 238° |
| 2026-05-06 23:00 | 49.30313 | 158.52590 | 37857 ft | 448 kts | 238° |
| 2026-05-06 23:01 | 49.26503 | 158.45031 | 37863 ft | 448 kts | 238° |
| 2026-05-06 23:01 | 49.22689 | 158.37487 | 37863 ft | 447 kts | 238° |
| 2026-05-06 23:02 | 49.18899 | 158.30011 | 37862 ft | 447 kts | 238° |
| 2026-05-06 23:02 | 49.15089 | 158.22517 | 37865 ft | 446 kts | 238° |
| 2026-05-06 23:03 | 49.11282 | 158.15050 | 37876 ft | 445 kts | 238° |
| 2026-05-06 23:03 | 49.07471 | 158.07595 | 37877 ft | 445 kts | 238° |
| 2026-05-06 23:04 | 49.03652 | 158.00147 | 37882 ft | 446 kts | 238° |
| 2026-05-06 23:04 | 48.99832 | 157.92718 | 37878 ft | 445 kts | 238° |
| 2026-05-06 23:05 | 48.96015 | 157.85314 | 37882 ft | 443 kts | 238° |
| 2026-05-06 23:05 | 48.92233 | 157.77995 | 37880 ft | 443 kts | 238° |
| 2026-05-06 23:06 | 48.88417 | 157.70636 | 37881 ft | 442 kts | 238° |
| 2026-05-06 23:06 | 48.84609 | 157.63308 | 37886 ft | 442 kts | 238° |
| 2026-05-06 23:07 | 48.80793 | 157.55990 | 37896 ft | 442 kts | 238° |
| 2026-05-06 23:07 | 48.76976 | 157.48685 | 37901 ft | 442 kts | 238° |
| 2026-05-06 23:08 | 48.73170 | 157.41425 | 37904 ft | 442 kts | 238° |
| 2026-05-06 23:08 | 48.69340 | 157.34135 | 37902 ft | 441 kts | 238° |
| 2026-05-06 23:09 | 48.66161 | 157.28103 | 37899 ft | 441 kts | 238° |
| 2026-05-06 23:09 | 48.62338 | 157.20862 | 37899 ft | 441 kts | 238° |
| 2026-05-06 23:10 | 48.58509 | 157.13632 | 37903 ft | 440 kts | 238° |
| 2026-05-06 23:10 | 48.54669 | 157.06401 | 37906 ft | 441 kts | 238° |
| 2026-05-06 23:11 | 48.50829 | 156.99187 | 37905 ft | 441 kts | 238° |
| 2026-05-06 23:11 | 48.46986 | 156.91989 | 37904 ft | 441 kts | 238° |
| 2026-05-06 23:12 | 48.43132 | 156.84790 | 37907 ft | 441 kts | 238° |
| 2026-05-06 23:12 | 48.39284 | 156.77622 | 37911 ft | 440 kts | 238° |
| 2026-05-06 23:13 | 48.35455 | 156.70506 | 37908 ft | 439 kts | 238° |
| 2026-05-06 23:13 | 48.31607 | 156.63375 | 37911 ft | 438 kts | 238° |
| 2026-05-06 23:14 | 48.27763 | 156.56270 | 37932 ft | 437 kts | 238° |
| 2026-05-06 23:14 | 48.23928 | 156.49200 | 37927 ft | 437 kts | 238° |
| 2026-05-06 23:15 | 48.20086 | 156.42135 | 37918 ft | 436 kts | 238° |
| 2026-05-06 23:15 | 48.16255 | 156.35110 | 37916 ft | 434 kts | 238° |
| 2026-05-06 23:16 | 48.12434 | 156.28120 | 37920 ft | 434 kts | 238° |
| 2026-05-06 23:16 | 48.08607 | 156.21138 | 37918 ft | 433 kts | 238° |
| 2026-05-06 23:17 | 48.04806 | 156.14222 | 37920 ft | 433 kts | 238° |
| 2026-05-06 23:17 | 48.00978 | 156.07273 | 37923 ft | 432 kts | 238° |
| 2026-05-06 23:18 | 47.97152 | 156.00349 | 37924 ft | 431 kts | 238° |
| 2026-05-06 23:18 | 47.93334 | 155.93456 | 37923 ft | 430 kts | 238° |
| 2026-05-06 23:19 | 47.89518 | 155.86583 | 37924 ft | 429 kts | 237° |
| 2026-05-06 23:19 | 47.85726 | 155.79770 | 37927 ft | 429 kts | 237° |
| 2026-05-06 23:20 | 47.81918 | 155.72947 | 37926 ft | 428 kts | 237° |
| 2026-05-06 23:20 | 47.78114 | 155.66147 | 37930 ft | 427 kts | 237° |
| 2026-05-06 23:21 | 47.74318 | 155.59378 | 37924 ft | 426 kts | 237° |
| 2026-05-06 23:21 | 47.70512 | 155.52610 | 37934 ft | 426 kts | 237° |
| 2026-05-06 23:22 | 47.66712 | 155.45868 | 37938 ft | 425 kts | 237° |
| 2026-05-06 23:22 | 47.62920 | 155.39158 | 37935 ft | 425 kts | 237° |
| 2026-05-06 23:23 | 47.59145 | 155.32494 | 37933 ft | 425 kts | 237° |
| 2026-05-06 23:23 | 47.55346 | 155.25805 | 37937 ft | 424 kts | 237° |
| 2026-05-06 23:24 | 47.51545 | 155.19127 | 37932 ft | 424 kts | 237° |
| 2026-05-06 23:24 | 47.47735 | 155.12452 | 37939 ft | 424 kts | 237° |
| 2026-05-06 23:25 | 47.43930 | 155.05802 | 37936 ft | 424 kts | 237° |
| 2026-05-06 23:25 | 47.40116 | 154.99151 | 37958 ft | 424 kts | 237° |
| 2026-05-06 23:26 | 47.36305 | 154.92522 | 37942 ft | 423 kts | 237° |
| 2026-05-06 23:26 | 47.32492 | 154.85907 | 37939 ft | 423 kts | 236° |
| 2026-05-06 23:27 | 47.28675 | 154.79301 | 37946 ft | 423 kts | 236° |
| 2026-05-06 23:27 | 47.24857 | 154.72706 | 37947 ft | 423 kts | 236° |
| 2026-05-06 23:28 | 47.21035 | 154.66125 | 37941 ft | 423 kts | 236° |
| 2026-05-06 23:28 | 47.17204 | 154.59541 | 37945 ft | 423 kts | 236° |
| 2026-05-06 23:29 | 47.13382 | 154.52990 | 37946 ft | 422 kts | 236° |
| 2026-05-06 23:29 | 47.09548 | 154.46434 | 37944 ft | 422 kts | 236° |
| 2026-05-06 23:30 | 47.05743 | 154.39942 | 37937 ft | 423 kts | 236° |
| 2026-05-06 23:30 | 47.01900 | 154.33403 | 37938 ft | 423 kts | 236° |
| 2026-05-06 23:31 | 46.98048 | 154.26864 | 37945 ft | 423 kts | 236° |
| 2026-05-06 23:31 | 46.94200 | 154.20346 | 37947 ft | 423 kts | 236° |
| 2026-05-06 23:32 | 46.90349 | 154.13840 | 37935 ft | 423 kts | 236° |
| 2026-05-06 23:32 | 46.86488 | 154.07333 | 37949 ft | 423 kts | 236° |
| 2026-05-06 23:33 | 46.82652 | 154.00882 | 37941 ft | 423 kts | 236° |
| 2026-05-06 23:33 | 46.78788 | 153.94400 | 37940 ft | 423 kts | 235° |
| 2026-05-06 23:34 | 46.74914 | 153.87918 | 37939 ft | 424 kts | 235° |
| 2026-05-06 23:34 | 46.71028 | 153.81430 | 37937 ft | 424 kts | 235° |
| 2026-05-06 23:35 | 46.67139 | 153.74952 | 37945 ft | 424 kts | 235° |
| 2026-05-06 23:35 | 46.63250 | 153.68490 | 37947 ft | 424 kts | 235° |
| 2026-05-06 23:36 | 46.59357 | 153.62036 | 37948 ft | 425 kts | 235° |
| 2026-05-06 23:36 | 46.55451 | 153.55576 | 37945 ft | 425 kts | 235° |
| 2026-05-06 23:37 | 46.51566 | 153.49168 | 37935 ft | 425 kts | 235° |
| 2026-05-06 23:37 | 46.47649 | 153.42720 | 37936 ft | 425 kts | 235° |
| 2026-05-06 23:38 | 46.43725 | 153.36276 | 37935 ft | 426 kts | 235° |
| 2026-05-06 23:38 | 46.39790 | 153.29831 | 37938 ft | 427 kts | 235° |
| 2026-05-06 23:39 | 46.35846 | 153.23385 | 37940 ft | 427 kts | 235° |
| 2026-05-06 23:39 | 46.31897 | 153.16946 | 37933 ft | 427 kts | 235° |
| 2026-05-06 23:40 | 46.27949 | 153.10524 | 37933 ft | 427 kts | 235° |
| 2026-05-06 23:40 | 46.24017 | 153.04142 | 37940 ft | 428 kts | 234° |
| 2026-05-06 23:41 | 46.20045 | 152.97723 | 37935 ft | 428 kts | 234° |
| 2026-05-06 23:41 | 46.16045 | 152.91361 | 37932 ft | 428 kts | 234° |
| 2026-05-06 23:42 | 46.12049 | 152.84981 | 37936 ft | 429 kts | 234° |
| 2026-05-06 23:42 | 46.08039 | 152.78613 | 37930 ft | 429 kts | 234° |
| 2026-05-06 23:43 | 46.04041 | 152.72270 | 37935 ft | 429 kts | 234° |
| 2026-05-06 23:43 | 46.00019 | 152.65908 | 37928 ft | 431 kts | 234° |
| 2026-05-06 23:44 | 45.95976 | 152.59525 | 37930 ft | 431 kts | 234° |
| 2026-05-06 23:44 | 45.91930 | 152.53154 | 37940 ft | 432 kts | 234° |
| 2026-05-06 23:45 | 45.87873 | 152.46779 | 37925 ft | 432 kts | 234° |
| 2026-05-06 23:45 | 45.83807 | 152.40405 | 37935 ft | 433 kts | 234° |
| 2026-05-06 23:46 | 45.79762 | 152.34080 | 37922 ft | 433 kts | 234° |
| 2026-05-06 23:46 | 45.75685 | 152.27718 | 37927 ft | 433 kts | 234° |
| 2026-05-06 23:47 | 45.71603 | 152.21364 | 37923 ft | 433 kts | 234° |
| 2026-05-06 23:47 | 45.67518 | 152.15020 | 37930 ft | 433 kts | 234° |
| 2026-05-06 23:48 | 45.63428 | 152.08682 | 37930 ft | 433 kts | 234° |
| 2026-05-06 23:48 | 45.59335 | 152.02355 | 37928 ft | 433 kts | 234° |
| 2026-05-06 23:49 | 45.55234 | 151.96030 | 37926 ft | 433 kts | 234° |
| 2026-05-06 23:49 | 45.51161 | 151.89764 | 37924 ft | 433 kts | 234° |
| 2026-05-06 23:50 | 45.47053 | 151.83456 | 37926 ft | 434 kts | 233° |
| 2026-05-06 23:50 | 45.40883 | 151.74011 | 37941 ft | 434 kts | 233° |
| 2026-05-06 23:51 | 45.36758 | 151.67714 | 37923 ft | 435 kts | 233° |
| 2026-05-06 23:51 | 45.32630 | 151.61428 | 37929 ft | 436 kts | 233° |
| 2026-05-06 23:52 | 45.28509 | 151.55168 | 37928 ft | 436 kts | 233° |
| 2026-05-06 23:52 | 45.24362 | 151.48880 | 37925 ft | 436 kts | 233° |
| 2026-05-06 23:53 | 45.20883 | 151.43619 | 37923 ft | 436 kts | 233° |
| 2026-05-06 23:53 | 45.16739 | 151.37362 | 37926 ft | 435 kts | 233° |
| 2026-05-06 23:54 | 45.12612 | 151.31146 | 37930 ft | 436 kts | 233° |
| 2026-05-06 23:54 | 45.08451 | 151.24894 | 37930 ft | 436 kts | 233° |
| 2026-05-06 23:55 | 45.04284 | 151.18645 | 37927 ft | 436 kts | 233° |
| 2026-05-06 23:55 | 45.00115 | 151.12409 | 37927 ft | 437 kts | 233° |
| 2026-05-06 23:56 | 44.95937 | 151.06174 | 37931 ft | 437 kts | 233° |
| 2026-05-06 23:56 | 44.91750 | 150.99937 | 37928 ft | 438 kts | 233° |
| 2026-05-06 23:57 | 44.87551 | 150.93700 | 37929 ft | 438 kts | 233° |
| 2026-05-06 23:57 | 44.83353 | 150.87477 | 37929 ft | 438 kts | 233° |
| 2026-05-06 23:58 | 44.79146 | 150.81255 | 37931 ft | 438 kts | 233° |
| 2026-05-06 23:58 | 44.74939 | 150.75046 | 37927 ft | 438 kts | 233° |
| 2026-05-06 23:59 | 44.70746 | 150.68871 | 37927 ft | 439 kts | 233° |
| 2026-05-06 23:59 | 44.66518 | 150.62660 | 37929 ft | 439 kts | 233° |
| 2026-05-07 00:00 | 44.62284 | 150.56453 | 37926 ft | 440 kts | 233° |
| 2026-05-07 00:00 | 44.58049 | 150.50261 | 37931 ft | 440 kts | 233° |
| 2026-05-07 00:01 | 44.53792 | 150.44048 | 37927 ft | 441 kts | 233° |
| 2026-05-07 00:01 | 44.49570 | 150.37903 | 37935 ft | 440 kts | 233° |
| 2026-05-07 00:02 | 44.45320 | 150.31727 | 37925 ft | 441 kts | 233° |
| 2026-05-07 00:02 | 44.41050 | 150.25539 | 37925 ft | 441 kts | 233° |
| 2026-05-07 00:03 | 44.36777 | 150.19360 | 37930 ft | 441 kts | 233° |
| 2026-05-07 00:03 | 44.32508 | 150.13199 | 37929 ft | 442 kts | 233° |
| 2026-05-07 00:04 | 44.28232 | 150.07044 | 37928 ft | 442 kts | 232° |
| 2026-05-07 00:04 | 44.23952 | 150.00895 | 37929 ft | 441 kts | 232° |
| 2026-05-07 00:05 | 44.19669 | 149.94756 | 37926 ft | 441 kts | 232° |
| 2026-05-07 00:05 | 44.15402 | 149.88653 | 37929 ft | 441 kts | 232° |
| 2026-05-07 00:06 | 44.11120 | 149.82544 | 37929 ft | 441 kts | 232° |
| 2026-05-07 00:06 | 44.06816 | 149.76414 | 37931 ft | 442 kts | 232° |
| 2026-05-07 00:07 | 44.02515 | 149.70305 | 37935 ft | 441 kts | 232° |
| 2026-05-07 00:07 | 43.98245 | 149.64249 | 37934 ft | 442 kts | 232° |
| 2026-05-07 00:08 | 43.93938 | 149.58159 | 37934 ft | 441 kts | 232° |
| 2026-05-07 00:08 | 43.89630 | 149.52077 | 37939 ft | 442 kts | 232° |
| 2026-05-07 00:09 | 43.85309 | 149.45994 | 37940 ft | 442 kts | 232° |
| 2026-05-07 00:09 | 43.80991 | 149.39925 | 37955 ft | 442 kts | 232° |
| 2026-05-07 00:10 | 43.76666 | 149.33862 | 37943 ft | 442 kts | 232° |
| 2026-05-07 00:10 | 43.72369 | 149.27850 | 37938 ft | 442 kts | 232° |
| 2026-05-07 00:11 | 43.68048 | 149.21818 | 37941 ft | 441 kts | 232° |
| 2026-05-07 00:11 | 43.63720 | 149.15789 | 37941 ft | 441 kts | 232° |
| 2026-05-07 00:12 | 43.59401 | 149.09785 | 37946 ft | 441 kts | 232° |
| 2026-05-07 00:12 | 43.55068 | 149.03776 | 37940 ft | 441 kts | 232° |
| 2026-05-07 00:13 | 43.50767 | 148.97822 | 37944 ft | 441 kts | 232° |
| 2026-05-07 00:13 | 43.46424 | 148.91826 | 37944 ft | 441 kts | 232° |
| 2026-05-07 00:14 | 43.42080 | 148.85838 | 37946 ft | 442 kts | 232° |
| 2026-05-07 00:14 | 43.37734 | 148.79864 | 37949 ft | 441 kts | 232° |
| 2026-05-07 00:15 | 43.33389 | 148.73901 | 37955 ft | 441 kts | 232° |
| 2026-05-07 00:15 | 43.29045 | 148.67952 | 37953 ft | 441 kts | 232° |
| 2026-05-07 00:16 | 43.24688 | 148.62001 | 37951 ft | 441 kts | 232° |
| 2026-05-07 00:16 | 43.20362 | 148.56102 | 37947 ft | 442 kts | 232° |
| 2026-05-07 00:17 | 43.15995 | 148.50161 | 37950 ft | 442 kts | 232° |
| 2026-05-07 00:17 | 43.11623 | 148.44226 | 37953 ft | 442 kts | 232° |
| 2026-05-07 00:18 | 43.07256 | 148.38310 | 37951 ft | 442 kts | 232° |
| 2026-05-07 00:18 | 43.02877 | 148.32390 | 37950 ft | 442 kts | 232° |
| 2026-05-07 00:19 | 42.98535 | 148.26533 | 37956 ft | 441 kts | 231° |
| 2026-05-07 00:19 | 42.94157 | 148.20640 | 37953 ft | 442 kts | 231° |
| 2026-05-07 00:20 | 42.89773 | 148.14752 | 37959 ft | 442 kts | 231° |
| 2026-05-07 00:20 | 42.85391 | 148.08877 | 37958 ft | 442 kts | 231° |
| 2026-05-07 00:21 | 42.81003 | 148.03008 | 37955 ft | 442 kts | 231° |
| 2026-05-07 00:21 | 42.76620 | 147.97157 | 37960 ft | 442 kts | 231° |
| 2026-05-07 00:22 | 42.72227 | 147.91306 | 37958 ft | 442 kts | 231° |
| 2026-05-07 00:22 | 42.67833 | 147.85465 | 37964 ft | 442 kts | 231° |
| 2026-05-07 00:23 | 42.63425 | 147.79618 | 37962 ft | 442 kts | 231° |
| 2026-05-07 00:23 | 42.59030 | 147.73800 | 37966 ft | 442 kts | 231° |
| 2026-05-07 00:24 | 42.54643 | 147.68004 | 37966 ft | 443 kts | 231° |
| 2026-05-07 00:24 | 42.50222 | 147.62179 | 37966 ft | 443 kts | 231° |
| 2026-05-07 00:25 | 42.45792 | 147.56349 | 37974 ft | 443 kts | 231° |
| 2026-05-07 00:25 | 42.41362 | 147.50536 | 37975 ft | 444 kts | 231° |
| 2026-05-07 00:26 | 42.36930 | 147.44726 | 37993 ft | 443 kts | 231° |
| 2026-05-07 00:26 | 42.32492 | 147.38909 | 37986 ft | 444 kts | 231° |
| 2026-05-07 00:27 | 42.28062 | 147.33120 | 37978 ft | 444 kts | 231° |
| 2026-05-07 00:27 | 42.23611 | 147.27313 | 37983 ft | 444 kts | 231° |
| 2026-05-07 00:28 | 42.19197 | 147.21568 | 37984 ft | 444 kts | 231° |
| 2026-05-07 00:28 | 42.14739 | 147.15778 | 37984 ft | 445 kts | 231° |
| 2026-05-07 00:29 | 42.10285 | 147.10003 | 37988 ft | 444 kts | 231° |
| 2026-05-07 00:30 | 42.01355 | 146.98461 | 37991 ft | 444 kts | 231° |
| 2026-05-07 00:30 | 41.96923 | 146.92751 | 37991 ft | 444 kts | 231° |
| 2026-05-07 00:31 | 41.92461 | 146.87013 | 37999 ft | 444 kts | 231° |
| 2026-05-07 00:31 | 41.87992 | 146.81271 | 37997 ft | 443 kts | 231° |
| 2026-05-07 00:32 | 41.83544 | 146.75560 | 38003 ft | 442 kts | 231° |
| 2026-05-07 00:32 | 41.79120 | 146.69894 | 38001 ft | 442 kts | 231° |
| 2026-05-07 00:33 | 41.74664 | 146.64197 | 38000 ft | 443 kts | 231° |
| 2026-05-07 00:33 | 41.70203 | 146.58507 | 37999 ft | 443 kts | 231° |
| 2026-05-07 00:34 | 41.65742 | 146.52827 | 38002 ft | 443 kts | 231° |
| 2026-05-07 00:34 | 41.61286 | 146.47166 | 38003 ft | 442 kts | 231° |
| 2026-05-07 00:35 | 41.56822 | 146.41505 | 38004 ft | 442 kts | 231° |
| 2026-05-07 00:35 | 41.52347 | 146.35842 | 38002 ft | 443 kts | 231° |
| 2026-05-07 00:36 | 41.47871 | 146.30190 | 38007 ft | 443 kts | 231° |
| 2026-05-07 00:36 | 41.43417 | 146.24575 | 38011 ft | 443 kts | 231° |
| 2026-05-07 00:37 | 41.38932 | 146.18934 | 38010 ft | 443 kts | 231° |
| 2026-05-07 00:37 | 41.34449 | 146.13305 | 38009 ft | 443 kts | 231° |
| 2026-05-07 00:38 | 41.30681 | 146.08584 | 38010 ft | 444 kts | 231° |
| 2026-05-07 00:38 | 41.26211 | 146.02994 | 38023 ft | 443 kts | 231° |
| 2026-05-07 00:39 | 41.21710 | 145.97374 | 38012 ft | 443 kts | 231° |
| 2026-05-07 00:39 | 41.17218 | 145.91778 | 38019 ft | 443 kts | 231° |
| 2026-05-07 00:40 | 41.12718 | 145.86183 | 38021 ft | 442 kts | 231° |
| 2026-05-07 00:40 | 41.08226 | 145.80609 | 38010 ft | 442 kts | 231° |
| 2026-05-07 00:41 | 41.03765 | 145.75082 | 38017 ft | 441 kts | 231° |
| 2026-05-07 00:41 | 40.99283 | 145.69542 | 38014 ft | 441 kts | 230° |
| 2026-05-07 00:42 | 40.94802 | 145.64014 | 38014 ft | 441 kts | 230° |
| 2026-05-07 00:42 | 40.90312 | 145.58485 | 38019 ft | 441 kts | 230° |
| 2026-05-07 00:43 | 40.85820 | 145.52965 | 38019 ft | 441 kts | 230° |
| 2026-05-07 00:43 | 40.81322 | 145.47448 | 38018 ft | 440 kts | 230° |
| 2026-05-07 00:44 | 40.76831 | 145.41950 | 38016 ft | 441 kts | 230° |
| 2026-05-07 00:44 | 40.72332 | 145.36452 | 38014 ft | 441 kts | 230° |
| 2026-05-07 00:45 | 40.67823 | 145.30954 | 38013 ft | 442 kts | 230° |
| 2026-05-07 00:45 | 40.63311 | 145.25463 | 38017 ft | 442 kts | 230° |
| 2026-05-07 00:46 | 40.58789 | 145.19969 | 38023 ft | 442 kts | 230° |
| 2026-05-07 00:46 | 40.54290 | 145.14515 | 38032 ft | 443 kts | 230° |
| 2026-05-07 00:47 | 40.49729 | 145.08995 | 38023 ft | 442 kts | 230° |
| 2026-05-07 00:47 | 40.45223 | 145.03553 | 38028 ft | 442 kts | 230° |
| 2026-05-07 00:48 | 40.40692 | 144.98091 | 38025 ft | 443 kts | 229° |
| 2026-05-07 00:48 | 40.36138 | 144.92610 | 38025 ft | 444 kts | 229° |
| 2026-05-07 00:49 | 40.31577 | 144.87133 | 38023 ft | 445 kts | 229° |
| 2026-05-07 00:49 | 40.27009 | 144.81655 | 38025 ft | 445 kts | 229° |
| 2026-05-07 00:50 | 40.22429 | 144.76176 | 38026 ft | 446 kts | 229° |
| 2026-05-07 00:50 | 40.17869 | 144.70731 | 38027 ft | 446 kts | 229° |
| 2026-05-07 00:51 | 40.13280 | 144.65261 | 38022 ft | 446 kts | 229° |
| 2026-05-07 00:51 | 40.08676 | 144.59784 | 38026 ft | 447 kts | 229° |
| 2026-05-07 00:52 | 40.04075 | 144.54320 | 38026 ft | 448 kts | 229° |
| 2026-05-07 00:52 | 39.99462 | 144.48854 | 38024 ft | 447 kts | 229° |
| 2026-05-07 00:53 | 39.94848 | 144.43395 | 38027 ft | 447 kts | 229° |
| 2026-05-07 00:53 | 39.90241 | 144.37957 | 38027 ft | 447 kts | 229° |
| 2026-05-07 00:54 | 39.85651 | 144.32548 | 38027 ft | 447 kts | 229° |
| 2026-05-07 00:54 | 39.81034 | 144.27117 | 38030 ft | 447 kts | 228° |
| 2026-05-07 00:55 | 39.76411 | 144.21691 | 38037 ft | 447 kts | 228° |
| 2026-05-07 00:55 | 39.71790 | 144.16275 | 38024 ft | 448 kts | 228° |
| 2026-05-07 00:56 | 39.67143 | 144.10840 | 38027 ft | 449 kts | 228° |
| 2026-05-07 00:56 | 39.62513 | 144.05436 | 38030 ft | 451 kts | 228° |
| 2026-05-07 00:57 | 39.57840 | 143.99991 | 38024 ft | 452 kts | 228° |
| 2026-05-07 00:57 | 39.53160 | 143.94549 | 38026 ft | 452 kts | 227° |
| 2026-05-07 00:58 | 39.48477 | 143.89113 | 38032 ft | 452 kts | 227° |
| 2026-05-07 00:58 | 39.43777 | 143.83667 | 38029 ft | 453 kts | 227° |
| 2026-05-07 00:59 | 39.36730 | 143.75523 | 38046 ft | 453 kts | 227° |
| 2026-05-07 01:00 | 39.32032 | 143.70106 | 38025 ft | 453 kts | 227° |
| 2026-05-07 01:00 | 39.27316 | 143.64678 | 38024 ft | 453 kts | 227° |
| 2026-05-07 01:01 | 39.22631 | 143.59295 | 38022 ft | 454 kts | 227° |
| 2026-05-07 01:01 | 39.17911 | 143.53883 | 38026 ft | 454 kts | 227° |
| 2026-05-07 01:02 | 39.13178 | 143.48466 | 38030 ft | 456 kts | 227° |
| 2026-05-07 01:02 | 39.08424 | 143.43036 | 38030 ft | 457 kts | 226° |
| 2026-05-07 01:03 | 39.03652 | 143.37596 | 38036 ft | 457 kts | 226° |
| 2026-05-07 01:03 | 38.98882 | 143.32168 | 38031 ft | 457 kts | 226° |
| 2026-05-07 01:04 | 38.94149 | 143.26792 | 38035 ft | 458 kts | 226° |
| 2026-05-07 01:04 | 38.88736 | 143.22342 | 38049 ft | 471 kts | 209° |
| 2026-05-07 01:05 | 38.82447 | 143.19662 | 38043 ft | 477 kts | 203° |
| 2026-05-07 01:05 | 38.76079 | 143.17195 | 38046 ft | 478 kts | 202° |
| 2026-05-07 01:06 | 38.69705 | 143.14763 | 38043 ft | 478 kts | 203° |
| 2026-05-07 01:06 | 38.63333 | 143.12317 | 38040 ft | 477 kts | 202° |
| 2026-05-07 01:07 | 38.56969 | 143.09889 | 38049 ft | 477 kts | 202° |
| 2026-05-07 01:07 | 38.50649 | 143.07477 | 38040 ft | 476 kts | 202° |
| 2026-05-07 01:08 | 38.44305 | 143.05064 | 38039 ft | 475 kts | 202° |
| 2026-05-07 01:08 | 38.37949 | 143.02648 | 38035 ft | 476 kts | 202° |
| 2026-05-07 01:09 | 38.31608 | 143.00244 | 38037 ft | 476 kts | 202° |
| 2026-05-07 01:09 | 38.25259 | 142.97839 | 38039 ft | 475 kts | 202° |
| 2026-05-07 01:10 | 38.18921 | 142.95445 | 38038 ft | 475 kts | 202° |
| 2026-05-07 01:10 | 38.12584 | 142.93054 | 38040 ft | 474 kts | 202° |
| 2026-05-07 01:11 | 38.06253 | 142.90671 | 38037 ft | 474 kts | 202° |
| 2026-05-07 01:11 | 37.99965 | 142.88307 | 38041 ft | 474 kts | 202° |
| 2026-05-07 01:12 | 37.93637 | 142.85934 | 38038 ft | 474 kts | 202° |
| 2026-05-07 01:12 | 37.87312 | 142.83565 | 38041 ft | 474 kts | 202° |
| 2026-05-07 01:13 | 37.80987 | 142.81200 | 38039 ft | 474 kts | 201° |
| 2026-05-07 01:13 | 37.74654 | 142.78837 | 38038 ft | 474 kts | 201° |
| 2026-05-07 01:14 | 37.68362 | 142.76494 | 38039 ft | 474 kts | 201° |
| 2026-05-07 01:14 | 37.62029 | 142.74139 | 38037 ft | 474 kts | 201° |
| 2026-05-07 01:15 | 37.55711 | 142.71794 | 38038 ft | 474 kts | 201° |
| 2026-05-07 01:15 | 37.49363 | 142.69458 | 38038 ft | 474 kts | 201° |
| 2026-05-07 01:16 | 37.43029 | 142.67134 | 38046 ft | 475 kts | 201° |
| 2026-05-07 01:16 | 37.36675 | 142.64805 | 38038 ft | 475 kts | 200° |
| 2026-05-07 01:17 | 37.30339 | 142.62487 | 38038 ft | 475 kts | 200° |
| 2026-05-07 01:17 | 37.23993 | 142.60170 | 38038 ft | 475 kts | 200° |
| 2026-05-07 01:18 | 37.17642 | 142.57856 | 38037 ft | 475 kts | 200° |
| 2026-05-07 01:18 | 37.11286 | 142.55544 | 38040 ft | 475 kts | 200° |
| 2026-05-07 01:19 | 37.04959 | 142.53247 | 38041 ft | 475 kts | 200° |
| 2026-05-07 01:19 | 36.98571 | 142.50932 | 38035 ft | 475 kts | 200° |
| 2026-05-07 01:19 | 36.95390 | 142.49781 | 37931 ft | 477 kts | 200° |
| 2026-05-07 01:20 | 36.92188 | 142.48622 | 37617 ft | 479 kts | 200° |
| 2026-05-07 01:20 | 36.88996 | 142.47472 | 37292 ft | 476 kts | 200° |
| 2026-05-07 01:20 | 36.86893 | 142.46718 | 37088 ft | 476 kts | 200° |
| 2026-05-07 01:20 | 36.83710 | 142.45580 | 36777 ft | 476 kts | 200° |
| 2026-05-07 01:21 | 36.79477 | 142.44063 | 36375 ft | 478 kts | 200° |
| 2026-05-07 01:21 | 36.76279 | 142.42918 | 36080 ft | 479 kts | 200° |
| 2026-05-07 01:21 | 36.74107 | 142.42141 | 35881 ft | 481 kts | 199° |
| 2026-05-07 01:21 | 36.70885 | 142.40991 | 35590 ft | 482 kts | 199° |
| 2026-05-07 01:22 | 36.67698 | 142.39854 | 35308 ft | 483 kts | 199° |
| 2026-05-07 01:22 | 36.64418 | 142.38684 | 35019 ft | 484 kts | 199° |
| 2026-05-07 01:22 | 36.61215 | 142.37542 | 34741 ft | 486 kts | 199° |
| 2026-05-07 01:22 | 36.57952 | 142.36381 | 34464 ft | 487 kts | 199° |
| 2026-05-07 01:23 | 36.54688 | 142.35220 | 34184 ft | 488 kts | 199° |
| 2026-05-07 01:23 | 36.51420 | 142.34059 | 33900 ft | 489 kts | 199° |
| 2026-05-07 01:23 | 36.48146 | 142.32896 | 33593 ft | 490 kts | 199° |
| 2026-05-07 01:23 | 36.44862 | 142.31731 | 33289 ft | 491 kts | 199° |
| 2026-05-07 01:24 | 36.41569 | 142.30564 | 32979 ft | 493 kts | 199° |
| 2026-05-07 01:24 | 36.38232 | 142.29383 | 32677 ft | 492 kts | 199° |
| 2026-05-07 01:24 | 36.34982 | 142.28233 | 32380 ft | 491 kts | 199° |
| 2026-05-07 01:24 | 36.31696 | 142.27072 | 32081 ft | 490 kts | 199° |
| 2026-05-07 01:25 | 36.28513 | 142.25639 | 31803 ft | 484 kts | 208° |
| 2026-05-07 01:25 | 36.25557 | 142.23694 | 31522 ft | 481 kts | 212° |
| 2026-05-07 01:25 | 36.22624 | 142.21688 | 31239 ft | 480 kts | 212° |
| 2026-05-07 01:25 | 36.19706 | 142.19673 | 30957 ft | 478 kts | 212° |
| 2026-05-07 01:26 | 36.16815 | 142.17675 | 30662 ft | 476 kts | 212° |
| 2026-05-07 01:26 | 36.13917 | 142.15686 | 30393 ft | 475 kts | 212° |
| 2026-05-07 01:26 | 36.11070 | 142.13642 | 30121 ft | 472 kts | 217° |
| 2026-05-07 01:26 | 36.08523 | 142.11107 | 29818 ft | 467 kts | 226° |
| 2026-05-07 01:27 | 36.06386 | 142.08126 | 29519 ft | 462 kts | 235° |
| 2026-05-07 01:27 | 36.04693 | 142.04770 | 29220 ft | 457 kts | 244° |
| 2026-05-07 01:27 | 36.03369 | 142.01215 | 28920 ft | 455 kts | 246° |
| 2026-05-07 01:27 | 36.02067 | 141.97656 | 28609 ft | 452 kts | 246° |
| 2026-05-07 01:28 | 36.00795 | 141.94118 | 28296 ft | 449 kts | 247° |
| 2026-05-07 01:28 | 35.99535 | 141.90597 | 27997 ft | 446 kts | 246° |
| 2026-05-07 01:28 | 35.98276 | 141.87113 | 27684 ft | 444 kts | 246° |
| 2026-05-07 01:28 | 35.97012 | 141.83635 | 27391 ft | 441 kts | 246° |
| 2026-05-07 01:29 | 35.95707 | 141.80227 | 27097 ft | 439 kts | 241° |
| 2026-05-07 01:29 | 35.93999 | 141.77116 | 26818 ft | 438 kts | 232° |
| 2026-05-07 01:29 | 35.91903 | 141.74427 | 26545 ft | 437 kts | 223° |
| 2026-05-07 01:29 | 35.89507 | 141.72189 | 26275 ft | 437 kts | 218° |
| 2026-05-07 01:30 | 35.87052 | 141.70026 | 25983 ft | 427 kts | 218° |
| 2026-05-07 01:30 | 35.84653 | 141.67936 | 25699 ft | 415 kts | 218° |
| 2026-05-07 01:30 | 35.82316 | 141.65912 | 25412 ft | 409 kts | 218° |
| 2026-05-07 01:30 | 35.79993 | 141.63892 | 25136 ft | 406 kts | 218° |
| 2026-05-07 01:31 | 35.77732 | 141.61923 | 24861 ft | 404 kts | 218° |
| 2026-05-07 01:31 | 35.75409 | 141.59905 | 24582 ft | 401 kts | 218° |
| 2026-05-07 01:31 | 35.73129 | 141.57930 | 24305 ft | 398 kts | 218° |
| 2026-05-07 01:31 | 35.70872 | 141.55973 | 24041 ft | 395 kts | 218° |
| 2026-05-07 01:32 | 35.68634 | 141.54033 | 23775 ft | 392 kts | 218° |
| 2026-05-07 01:32 | 35.66421 | 141.52116 | 23480 ft | 389 kts | 218° |
| 2026-05-07 01:32 | 35.64212 | 141.50205 | 23174 ft | 387 kts | 218° |
| 2026-05-07 01:32 | 35.62011 | 141.48302 | 22859 ft | 384 kts | 218° |
| 2026-05-07 01:33 | 35.59834 | 141.46421 | 22546 ft | 382 kts | 218° |
| 2026-05-07 01:33 | 35.57657 | 141.44540 | 22234 ft | 380 kts | 218° |
| 2026-05-07 01:33 | 35.55519 | 141.42697 | 21934 ft | 378 kts | 218° |
| 2026-05-07 01:33 | 35.53373 | 141.40846 | 21638 ft | 376 kts | 218° |
| 2026-05-07 01:34 | 35.51232 | 141.39001 | 21338 ft | 375 kts | 218° |
| 2026-05-07 01:34 | 35.49105 | 141.37168 | 21045 ft | 373 kts | 218° |
| 2026-05-07 01:34 | 35.46984 | 141.35343 | 20755 ft | 371 kts | 218° |
| 2026-05-07 01:34 | 35.44873 | 141.33528 | 20466 ft | 369 kts | 218° |
| 2026-05-07 01:35 | 35.42772 | 141.31721 | 20178 ft | 368 kts | 218° |
| 2026-05-07 01:35 | 35.40680 | 141.29925 | 19897 ft | 366 kts | 218° |
| 2026-05-07 01:35 | 35.38596 | 141.28136 | 19620 ft | 365 kts | 218° |
| 2026-05-07 01:35 | 35.36521 | 141.26356 | 19331 ft | 364 kts | 218° |
| 2026-05-07 01:36 | 35.34454 | 141.24584 | 19066 ft | 362 kts | 218° |
| 2026-05-07 01:36 | 35.32386 | 141.22813 | 18795 ft | 361 kts | 218° |
| 2026-05-07 01:36 | 35.30334 | 141.21055 | 18524 ft | 360 kts | 218° |
| 2026-05-07 01:36 | 35.28281 | 141.19299 | 18234 ft | 359 kts | 218° |
| 2026-05-07 01:37 | 35.26235 | 141.17549 | 17924 ft | 358 kts | 218° |
| 2026-05-07 01:37 | 35.24221 | 141.15827 | 17619 ft | 356 kts | 218° |
| 2026-05-07 01:37 | 35.22193 | 141.14095 | 17313 ft | 355 kts | 218° |
| 2026-05-07 01:37 | 35.20179 | 141.12377 | 17016 ft | 353 kts | 218° |
| 2026-05-07 01:38 | 35.18341 | 141.10418 | 16737 ft | 348 kts | 232° |
| 2026-05-07 01:38 | 35.17033 | 141.07950 | 16487 ft | 346 kts | 243° |
| 2026-05-07 01:38 | 35.16135 | 141.05218 | 16249 ft | 347 kts | 252° |
| 2026-05-07 01:38 | 35.15608 | 141.02345 | 16020 ft | 346 kts | 257° |
| 2026-05-07 01:39 | 35.15120 | 140.99468 | 15789 ft | 346 kts | 256° |
| 2026-05-07 01:39 | 35.14598 | 140.96601 | 15540 ft | 344 kts | 256° |
| 2026-05-07 01:39 | 35.14068 | 140.93754 | 15304 ft | 344 kts | 256° |
| 2026-05-07 01:39 | 35.13549 | 140.90906 | 15068 ft | 343 kts | 256° |
| 2026-05-07 01:40 | 35.13036 | 140.88063 | 14830 ft | 341 kts | 256° |
| 2026-05-07 01:40 | 35.12522 | 140.85239 | 14589 ft | 340 kts | 256° |
| 2026-05-07 01:40 | 35.12011 | 140.82454 | 14366 ft | 339 kts | 256° |
| 2026-05-07 01:40 | 35.11490 | 140.79609 | 14140 ft | 338 kts | 256° |
| 2026-05-07 01:41 | 35.10985 | 140.76847 | 13910 ft | 337 kts | 256° |
| 2026-05-07 01:41 | 35.10473 | 140.74058 | 13662 ft | 336 kts | 256° |
| 2026-05-07 01:41 | 35.09963 | 140.71279 | 13403 ft | 335 kts | 256° |
| 2026-05-07 01:41 | 35.09452 | 140.68500 | 13141 ft | 334 kts | 256° |
| 2026-05-07 01:42 | 35.08946 | 140.65750 | 12897 ft | 329 kts | 256° |
| 2026-05-07 01:42 | 35.08455 | 140.63086 | 12667 ft | 315 kts | 256° |
| 2026-05-07 01:42 | 35.07977 | 140.60496 | 12427 ft | 312 kts | 256° |
| 2026-05-07 01:42 | 35.07500 | 140.57924 | 12198 ft | 310 kts | 256° |
| 2026-05-07 01:43 | 35.07025 | 140.55357 | 11971 ft | 309 kts | 256° |
| 2026-05-07 01:43 | 35.06551 | 140.52802 | 11739 ft | 309 kts | 256° |
| 2026-05-07 01:43 | 35.06077 | 140.50244 | 11523 ft | 309 kts | 256° |
| 2026-05-07 01:43 | 35.05607 | 140.47716 | 11308 ft | 308 kts | 256° |
| 2026-05-07 01:44 | 35.05132 | 140.45164 | 11086 ft | 308 kts | 256° |
| 2026-05-07 01:44 | 35.04657 | 140.42616 | 10878 ft | 308 kts | 256° |
| 2026-05-07 01:44 | 35.04184 | 140.40078 | 10655 ft | 308 kts | 256° |
| 2026-05-07 01:44 | 35.03708 | 140.37529 | 10444 ft | 308 kts | 256° |
| 2026-05-07 01:45 | 35.03231 | 140.34980 | 10236 ft | 308 kts | 256° |
| 2026-05-07 01:45 | 35.02756 | 140.32437 | 10031 ft | 307 kts | 256° |
| 2026-05-07 01:45 | 35.02278 | 140.29893 | 9799 ft | 307 kts | 256° |
| 2026-05-07 01:45 | 35.01804 | 140.27361 | 9574 ft | 306 kts | 256° |
| 2026-05-07 01:46 | 35.01329 | 140.24833 | 9341 ft | 305 kts | 256° |
| 2026-05-07 01:46 | 35.00859 | 140.22307 | 9112 ft | 305 kts | 257° |
| 2026-05-07 01:46 | 35.00913 | 140.19773 | 8877 ft | 295 kts | 280° |
| 2026-05-07 01:46 | 35.01649 | 140.17494 | 8627 ft | 286 kts | 297° |
| 2026-05-07 01:47 | 35.02719 | 140.15475 | 8393 ft | 282 kts | 300° |
| 2026-05-07 01:47 | 35.03790 | 140.13485 | 8164 ft | 280 kts | 299° |
| 2026-05-07 01:47 | 35.04835 | 140.11492 | 7946 ft | 278 kts | 298° |
| 2026-05-07 01:47 | 35.05868 | 140.09503 | 7719 ft | 277 kts | 298° |
| 2026-05-07 01:48 | 35.06904 | 140.07517 | 7502 ft | 277 kts | 299° |
| 2026-05-07 01:48 | 35.07942 | 140.05536 | 7283 ft | 276 kts | 299° |
| 2026-05-07 01:48 | 35.08963 | 140.03583 | 7069 ft | 276 kts | 299° |
| 2026-05-07 01:48 | 35.09988 | 140.01619 | 6857 ft | 276 kts | 299° |
| 2026-05-07 01:49 | 35.11024 | 139.99634 | 6630 ft | 274 kts | 299° |
| 2026-05-07 01:49 | 35.12052 | 139.97668 | 6423 ft | 274 kts | 298° |
| 2026-05-07 01:49 | 35.13075 | 139.95700 | 6210 ft | 275 kts | 299° |
| 2026-05-07 01:49 | 35.14093 | 139.93747 | 5972 ft | 271 kts | 299° |
| 2026-05-07 01:50 | 35.15100 | 139.91813 | 5990 ft | 272 kts | 299° |
| 2026-05-07 01:50 | 35.16115 | 139.89861 | 5991 ft | 272 kts | 299° |
| 2026-05-07 01:50 | 35.17132 | 139.87908 | 5991 ft | 271 kts | 299° |
| 2026-05-07 01:50 | 35.18141 | 139.85968 | 5988 ft | 271 kts | 299° |
| 2026-05-07 01:51 | 35.19157 | 139.84010 | 5990 ft | 272 kts | 299° |
| 2026-05-07 01:51 | 35.20272 | 139.82140 | 5970 ft | 275 kts | 313° |
| 2026-05-07 01:51 | 35.21923 | 139.80932 | 5970 ft | 282 kts | 338° |
| 2026-05-07 01:51 | 35.23816 | 139.80308 | 5983 ft | 284 kts | 342° |
| 2026-05-07 01:52 | 35.24452 | 139.80107 | 5899 ft | 287 kts | 342° |
| 2026-05-07 01:52 | 35.25334 | 139.79833 | 5788 ft | 284 kts | 342° |
| 2026-05-07 01:52 | 35.27234 | 139.79241 | 5547 ft | 282 kts | 342° |
| 2026-05-07 01:53 | 35.29137 | 139.78690 | 5294 ft | 281 kts | 349° |
| 2026-05-07 01:53 | 35.31082 | 139.78976 | 5024 ft | 285 kts | 18° |
| 2026-05-07 01:53 | 35.32729 | 139.80284 | 4978 ft | 285 kts | 46° |
| 2026-05-07 01:53 | 35.33872 | 139.82260 | 4990 ft | 286 kts | 58° |
| 2026-05-07 01:54 | 35.34894 | 139.84260 | 5007 ft | 270 kts | 59° |
| 2026-05-07 01:54 | 35.35878 | 139.86225 | 5000 ft | 269 kts | 59° |
| 2026-05-07 01:54 | 35.36859 | 139.88163 | 4994 ft | 266 kts | 59° |
| 2026-05-07 01:54 | 35.37844 | 139.90091 | 5003 ft | 266 kts | 59° |
| 2026-05-07 01:55 | 35.38826 | 139.92019 | 4998 ft | 267 kts | 59° |
| 2026-05-07 01:55 | 35.39808 | 139.93955 | 4996 ft | 266 kts | 59° |
| 2026-05-07 01:55 | 35.40785 | 139.95880 | 5002 ft | 264 kts | 59° |
| 2026-05-07 01:55 | 35.41757 | 139.97795 | 4992 ft | 265 kts | 59° |
| 2026-05-07 01:56 | 35.42730 | 139.99715 | 4995 ft | 265 kts | 59° |
| 2026-05-07 01:56 | 35.43696 | 140.01621 | 4996 ft | 267 kts | 59° |
| 2026-05-07 01:56 | 35.44677 | 140.03555 | 4988 ft | 267 kts | 59° |
| 2026-05-07 01:56 | 35.45654 | 140.05483 | 4993 ft | 266 kts | 59° |
| 2026-05-07 01:57 | 35.46627 | 140.07407 | 4991 ft | 260 kts | 59° |
| 2026-05-07 01:57 | 35.47515 | 140.09162 | 4986 ft | 245 kts | 59° |
| 2026-05-07 01:57 | 35.48439 | 140.10991 | 4995 ft | 245 kts | 59° |
| 2026-05-07 01:57 | 35.49333 | 140.12761 | 4984 ft | 243 kts | 59° |
| 2026-05-07 01:58 | 35.50222 | 140.14523 | 4991 ft | 243 kts | 59° |
| 2026-05-07 01:58 | 35.51110 | 140.16282 | 4976 ft | 242 kts | 59° |
| 2026-05-07 01:58 | 35.52007 | 140.18042 | 4977 ft | 243 kts | 58° |
| 2026-05-07 01:58 | 35.53254 | 140.19425 | 4940 ft | 244 kts | 26° |
| 2026-05-07 01:59 | 35.54887 | 140.19788 | 4952 ft | 239 kts | 353° |
| 2026-05-07 01:59 | 35.56495 | 140.19328 | 4965 ft | 237 kts | 341° |
| 2026-05-07 01:59 | 35.58045 | 140.18671 | 4964 ft | 234 kts | 330° |
| 2026-05-07 01:59 | 35.59182 | 140.17320 | 4949 ft | 225 kts | 300° |
| 2026-05-07 02:00 | 35.59966 | 140.15654 | 4968 ft | 225 kts | 295° |
| 2026-05-07 02:00 | 35.60553 | 140.13894 | 4947 ft | 221 kts | 276° |
| 2026-05-07 02:00 | 35.60577 | 140.12127 | 4968 ft | 199 kts | 265° |
| 2026-05-07 02:00 | 35.60551 | 140.10408 | 4980 ft | 201 kts | 265° |
| 2026-05-07 02:01 | 35.60537 | 140.08720 | 4983 ft | 201 kts | 266° |
| 2026-05-07 02:01 | 35.60530 | 140.06997 | 4978 ft | 202 kts | 266° |
| 2026-05-07 02:01 | 35.60520 | 140.05259 | 4796 ft | 203 kts | 266° |
| 2026-05-07 02:01 | 35.60508 | 140.03540 | 4493 ft | 200 kts | 266° |
| 2026-05-07 02:02 | 35.60498 | 140.01835 | 4121 ft | 200 kts | 266° |
| 2026-05-07 02:02 | 35.60481 | 140.00138 | 3794 ft | 195 kts | 266° |
| 2026-05-07 02:02 | 35.60460 | 139.98460 | 3539 ft | 200 kts | 266° |
| 2026-05-07 02:02 | 35.60443 | 139.96829 | 3188 ft | 181 kts | 266° |
| 2026-05-07 02:03 | 35.60440 | 139.95290 | 3126 ft | 185 kts | 266° |
| 2026-05-07 02:03 | 35.60437 | 139.93836 | 2720 ft | 160 kts | 267° |
| 2026-05-07 02:03 | 35.60431 | 139.92568 | 2555 ft | 148 kts | 266° |
| 2026-05-07 02:03 | 35.60425 | 139.91274 | 2402 ft | 152 kts | 266° |
| 2026-05-07 02:04 | 35.60398 | 139.89992 | 2156 ft | 149 kts | 265° |
| 2026-05-07 02:04 | 35.60338 | 139.88757 | 1988 ft | 142 kts | 263° |
| 2026-05-07 02:04 | 35.60297 | 139.87922 | 1964 ft | 152 kts | 263° |
| 2026-05-07 02:04 | 35.60247 | 139.86617 | 1826 ft | 152 kts | 264° |
| 2026-05-07 02:05 | 35.60227 | 139.85293 | 1545 ft | 153 kts | 266° |
| 2026-05-07 02:05 | 35.60208 | 139.84001 | 1312 ft | 150 kts | 266° |
| 2026-05-07 02:05 | 35.60158 | 139.82724 | 1137 ft | 149 kts | 261° |
| 2026-05-07 02:05 | 35.59831 | 139.81106 | 875 ft | 147 kts | 246° |
| 2026-05-07 02:06 | 35.59532 | 139.80393 | 723 ft | 147 kts | 235° |
| 2026-05-07 02:06 | 35.58865 | 139.79471 | 628 ft | 144 kts | 216° |
| 2026-05-07 02:06 | 35.58032 | 139.78790 | 399 ft | 144 kts | 208° |
| 2026-05-07 02:06 | 35.57214 | 139.78098 | 198 ft | 141 kts | 212° |
| 2026-05-07 02:07 | 35.56424 | 139.77428 | 36 ft | 133 kts | 211° |
| 2026-05-07 02:07 | 35.55534 | 139.76677 | 30 ft | 35 kts | 206° |
| 2026-05-07 02:07 | 35.55315 | 139.76626 | 29 ft | 22 kts | 170° |
| 2026-05-07 02:08 | 35.55256 | 139.76687 | 29 ft | 1 kts | 98° |
| 2026-05-07 02:08 | 35.55259 | 139.76693 | 29 ft | 1 kts | 77° |
| 2026-05-07 02:08 | 35.55295 | 139.76734 | 29 ft | 13 kts | 36° |
| 2026-05-07 02:08 | 35.55380 | 139.76808 | 29 ft | 17 kts | 36° |
| 2026-05-07 02:09 | 35.55481 | 139.76900 | 29 ft | 20 kts | 37° |
| 2026-05-07 02:09 | 35.55598 | 139.76997 | 29 ft | 23 kts | 32° |
| 2026-05-07 02:09 | 35.55749 | 139.77126 | 27 ft | 26 kts | 36° |
| 2026-05-07 02:09 | 35.55907 | 139.77268 | 29 ft | 24 kts | 45° |
| 2026-05-07 02:10 | 35.56000 | 139.77443 | 27 ft | 23 kts | 60° |
| 2026-05-07 02:10 | 35.56079 | 139.77614 | 29 ft | 22 kts | 59° |
| 2026-05-07 02:10 | 35.56161 | 139.77786 | 29 ft | 24 kts | 60° |
| 2026-05-07 02:10 | 35.56232 | 139.77940 | 29 ft | 14 kts | 58° |
| 2026-05-07 02:11 | 35.56289 | 139.78055 | 29 ft | 17 kts | 59° |
| 2026-05-07 02:11 | 35.56313 | 139.78106 | 29 ft | 7 kts | 60° |
| 2026-05-07 02:11 | 35.56343 | 139.78169 | 29 ft | 10 kts | 59° |
| 2026-05-07 02:11 | 35.56391 | 139.78270 | 29 ft | 17 kts | 60° |
| 2026-05-07 02:12 | 35.56405 | 139.78397 | 29 ft | 13 kts | 122° |
| 2026-05-07 02:12 | 35.56334 | 139.78447 | 29 ft | 12 kts | 154° |
| 2026-05-07 02:12 | 35.56252 | 139.78502 | 29 ft | 14 kts | 150° |
| 2026-05-07 02:12 | 35.56161 | 139.78571 | 29 ft | 16 kts | 148° |
| 2026-05-07 02:13 | 35.56056 | 139.78649 | 29 ft | 19 kts | 149° |
| 2026-05-07 02:13 | 35.55938 | 139.78736 | 29 ft | 21 kts | 149° |
| 2026-05-07 02:13 | 35.55809 | 139.78828 | 29 ft | 22 kts | 150° |
| 2026-05-07 02:13 | 35.55670 | 139.78923 | 28 ft | 24 kts | 150° |
| 2026-05-07 02:14 | 35.55584 | 139.78983 | 29 ft | 1 kts | 150° |
| 2026-05-07 02:14 | 35.55567 | 139.78995 | 29 ft | 5 kts | 150° |
| 2026-05-07 02:14 | 35.55530 | 139.79021 | 27 ft | 8 kts | 150° |
| 2026-05-07 02:14 | 35.55470 | 139.79043 | 29 ft | 9 kts | 181° |
| 2026-05-07 02:15 | 35.55436 | 139.79018 | 29 ft | 3 kts | 221° |
| 2026-05-07 02:15 | 35.55436 | 139.79008 | 29 ft | 2 kts | 257° |
| 2026-05-07 02:15 | 35.55441 | 139.78989 | 28 ft | 2 kts | 288° |
| 2026-05-07 02:15 | 35.55453 | 139.78970 | 28 ft | 2 kts | 312° |
| 2026-05-07 02:16 | 35.55464 | 139.78961 | 28 ft | 3 kts | 322° |
| 2026-05-07 02:16 | 35.55482 | 139.78947 | 28 ft | 3 kts | 328° |
| 2026-05-07 02:16 | 35.55493 | 139.78939 | 28 ft | 1 kts | 328° |
| 2026-05-07 02:16 | 35.55498 | 139.78935 | 28 ft | 0 kts | 329° |